<?xml version="1.0" encoding="UTF-8" standalone="no" ?>
<gpx xmlns="http://www.topografix.com/GPX/1/1" xmlns:xsi="http://www.w3.org/2001/XMLSchema-instance" xsi:schemaLocation="http://www.topografix.com/GPX/1/1 http://www.topografix.com/GPX/1/1/gpx.xsd" version="1.1" creator="VisuGPX - https://www.visugpx.com">
  <metadata>
    <name>Autour de Lacapelle-Biron</name>
    <desc><![CDATA[Trente kilomètres assez physique.]]></desc>
  </metadata>
  <trk>
    <name><![CDATA[11-NOV-13 11:24:14]]></name>
    <trkseg>
      <trkpt lat="44.60049" lon="0.89482">
        <ele>162.6</ele>
        <time>2013-11-11T07:46:54Z</time>
      </trkpt>
      <trkpt lat="44.60048" lon="0.89482">
        <ele>165.48</ele>
        <time>2013-11-11T07:47:17Z</time>
      </trkpt>
      <trkpt lat="44.60047" lon="0.89483">
        <ele>169.33</ele>
        <time>2013-11-11T07:47:52Z</time>
      </trkpt>
      <trkpt lat="44.6005" lon="0.89483">
        <ele>167.89</ele>
        <time>2013-11-11T07:48:08Z</time>
      </trkpt>
      <trkpt lat="44.60052" lon="0.89482">
        <ele>166.93</ele>
        <time>2013-11-11T07:48:21Z</time>
      </trkpt>
      <trkpt lat="44.6006" lon="0.89489">
        <ele>167.41</ele>
        <time>2013-11-11T07:48:28Z</time>
      </trkpt>
      <trkpt lat="44.60068" lon="0.895">
        <ele>168.85</ele>
        <time>2013-11-11T07:48:35Z</time>
      </trkpt>
      <trkpt lat="44.60082" lon="0.89479">
        <ele>169.33</ele>
        <time>2013-11-11T07:48:45Z</time>
      </trkpt>
      <trkpt lat="44.6011" lon="0.89415">
        <ele>172.69</ele>
        <time>2013-11-11T07:49:04Z</time>
      </trkpt>
      <trkpt lat="44.60131" lon="0.89354">
        <ele>171.25</ele>
        <time>2013-11-11T07:49:19Z</time>
      </trkpt>
      <trkpt lat="44.60134" lon="0.89325">
        <ele>169.33</ele>
        <time>2013-11-11T07:49:23Z</time>
      </trkpt>
      <trkpt lat="44.60152" lon="0.89302">
        <ele>167.89</ele>
        <time>2013-11-11T07:49:28Z</time>
      </trkpt>
      <trkpt lat="44.60163" lon="0.89299">
        <ele>167.41</ele>
        <time>2013-11-11T07:49:30Z</time>
      </trkpt>
      <trkpt lat="44.60188" lon="0.89275">
        <ele>166.93</ele>
        <time>2013-11-11T07:49:36Z</time>
      </trkpt>
      <trkpt lat="44.60237" lon="0.89242">
        <ele>169.81</ele>
        <time>2013-11-11T07:49:52Z</time>
      </trkpt>
      <trkpt lat="44.60293" lon="0.89214">
        <ele>170.29</ele>
        <time>2013-11-11T07:50:08Z</time>
      </trkpt>
      <trkpt lat="44.60331" lon="0.8916">
        <ele>170.77</ele>
        <time>2013-11-11T07:50:22Z</time>
      </trkpt>
      <trkpt lat="44.60355" lon="0.89142">
        <ele>174.14</ele>
        <time>2013-11-11T07:50:32Z</time>
      </trkpt>
      <trkpt lat="44.60383" lon="0.89124">
        <ele>177.98</ele>
        <time>2013-11-11T07:50:44Z</time>
      </trkpt>
      <trkpt lat="44.60421" lon="0.891">
        <ele>178.46</ele>
        <time>2013-11-11T07:50:57Z</time>
      </trkpt>
      <trkpt lat="44.60453" lon="0.89075">
        <ele>180.38</ele>
        <time>2013-11-11T07:51:09Z</time>
      </trkpt>
      <trkpt lat="44.60485" lon="0.89058">
        <ele>185.67</ele>
        <time>2013-11-11T07:51:24Z</time>
      </trkpt>
      <trkpt lat="44.6052" lon="0.89038">
        <ele>186.15</ele>
        <time>2013-11-11T07:51:36Z</time>
      </trkpt>
      <trkpt lat="44.60574" lon="0.89006">
        <ele>184.71</ele>
        <time>2013-11-11T07:51:52Z</time>
      </trkpt>
      <trkpt lat="44.60619" lon="0.88993">
        <ele>183.27</ele>
        <time>2013-11-11T07:52:05Z</time>
      </trkpt>
      <trkpt lat="44.60673" lon="0.88975">
        <ele>185.67</ele>
        <time>2013-11-11T07:52:20Z</time>
      </trkpt>
      <trkpt lat="44.607" lon="0.88966">
        <ele>186.63</ele>
        <time>2013-11-11T07:52:28Z</time>
      </trkpt>
      <trkpt lat="44.60737" lon="0.88943">
        <ele>187.11</ele>
        <time>2013-11-11T07:52:39Z</time>
      </trkpt>
      <trkpt lat="44.60785" lon="0.88917">
        <ele>190</ele>
        <time>2013-11-11T07:52:52Z</time>
      </trkpt>
      <trkpt lat="44.60818" lon="0.88892">
        <ele>192.4</ele>
        <time>2013-11-11T07:53:02Z</time>
      </trkpt>
      <trkpt lat="44.60843" lon="0.88874">
        <ele>194.32</ele>
        <time>2013-11-11T07:53:12Z</time>
      </trkpt>
      <trkpt lat="44.60885" lon="0.88848">
        <ele>194.8</ele>
        <time>2013-11-11T07:53:25Z</time>
      </trkpt>
      <trkpt lat="44.60906" lon="0.88835">
        <ele>195.77</ele>
        <time>2013-11-11T07:53:34Z</time>
      </trkpt>
      <trkpt lat="44.60929" lon="0.88812">
        <ele>195.28</ele>
        <time>2013-11-11T07:53:40Z</time>
      </trkpt>
      <trkpt lat="44.6097" lon="0.88777">
        <ele>194.8</ele>
        <time>2013-11-11T07:53:51Z</time>
      </trkpt>
      <trkpt lat="44.61001" lon="0.88751">
        <ele>195.28</ele>
        <time>2013-11-11T07:54:01Z</time>
      </trkpt>
      <trkpt lat="44.61031" lon="0.88724">
        <ele>197.69</ele>
        <time>2013-11-11T07:54:10Z</time>
      </trkpt>
      <trkpt lat="44.61032" lon="0.88705">
        <ele>197.21</ele>
        <time>2013-11-11T07:54:14Z</time>
      </trkpt>
      <trkpt lat="44.61035" lon="0.88653">
        <ele>195.28</ele>
        <time>2013-11-11T07:54:27Z</time>
      </trkpt>
      <trkpt lat="44.61037" lon="0.886">
        <ele>190.96</ele>
        <time>2013-11-11T07:54:41Z</time>
      </trkpt>
      <trkpt lat="44.6104" lon="0.88583">
        <ele>190.96</ele>
        <time>2013-11-11T07:54:47Z</time>
      </trkpt>
      <trkpt lat="44.61055" lon="0.88589">
        <ele>190.96</ele>
        <time>2013-11-11T07:54:55Z</time>
      </trkpt>
      <trkpt lat="44.61104" lon="0.88645">
        <ele>191.44</ele>
        <time>2013-11-11T07:55:08Z</time>
      </trkpt>
      <trkpt lat="44.61139" lon="0.88663">
        <ele>192.4</ele>
        <time>2013-11-11T07:55:19Z</time>
      </trkpt>
      <trkpt lat="44.61198" lon="0.88617">
        <ele>195.77</ele>
        <time>2013-11-11T07:55:37Z</time>
      </trkpt>
      <trkpt lat="44.61238" lon="0.88586">
        <ele>199.13</ele>
        <time>2013-11-11T07:55:49Z</time>
      </trkpt>
      <trkpt lat="44.61313" lon="0.8853">
        <ele>201.05</ele>
        <time>2013-11-11T07:56:08Z</time>
      </trkpt>
      <trkpt lat="44.61382" lon="0.885">
        <ele>203.46</ele>
        <time>2013-11-11T07:56:25Z</time>
      </trkpt>
      <trkpt lat="44.61446" lon="0.8848">
        <ele>208.74</ele>
        <time>2013-11-11T07:56:41Z</time>
      </trkpt>
      <trkpt lat="44.6151" lon="0.88459">
        <ele>210.67</ele>
        <time>2013-11-11T07:56:59Z</time>
      </trkpt>
      <trkpt lat="44.61568" lon="0.88455">
        <ele>209.7</ele>
        <time>2013-11-11T07:57:14Z</time>
      </trkpt>
      <trkpt lat="44.61614" lon="0.88449">
        <ele>209.22</ele>
        <time>2013-11-11T07:57:26Z</time>
      </trkpt>
      <trkpt lat="44.61666" lon="0.88451">
        <ele>210.19</ele>
        <time>2013-11-11T07:57:40Z</time>
      </trkpt>
      <trkpt lat="44.617" lon="0.88469">
        <ele>208.26</ele>
        <time>2013-11-11T07:57:52Z</time>
      </trkpt>
      <trkpt lat="44.6171" lon="0.88462">
        <ele>206.82</ele>
        <time>2013-11-11T07:57:58Z</time>
      </trkpt>
      <trkpt lat="44.61719" lon="0.88458">
        <ele>206.34</ele>
        <time>2013-11-11T07:58:09Z</time>
      </trkpt>
      <trkpt lat="44.61722" lon="0.88457">
        <ele>206.34</ele>
        <time>2013-11-11T07:58:11Z</time>
      </trkpt>
      <trkpt lat="44.61739" lon="0.88446">
        <ele>205.38</ele>
        <time>2013-11-11T07:58:19Z</time>
      </trkpt>
      <trkpt lat="44.61769" lon="0.88426">
        <ele>205.86</ele>
        <time>2013-11-11T07:58:29Z</time>
      </trkpt>
      <trkpt lat="44.61797" lon="0.88412">
        <ele>204.9</ele>
        <time>2013-11-11T07:58:36Z</time>
      </trkpt>
      <trkpt lat="44.61812" lon="0.88399">
        <ele>203.94</ele>
        <time>2013-11-11T07:58:39Z</time>
      </trkpt>
      <trkpt lat="44.61831" lon="0.88377">
        <ele>202.49</ele>
        <time>2013-11-11T07:58:43Z</time>
      </trkpt>
      <trkpt lat="44.61862" lon="0.88351">
        <ele>199.61</ele>
        <time>2013-11-11T07:58:50Z</time>
      </trkpt>
      <trkpt lat="44.61874" lon="0.88346">
        <ele>198.65</ele>
        <time>2013-11-11T07:58:52Z</time>
      </trkpt>
      <trkpt lat="44.61916" lon="0.88324">
        <ele>196.25</ele>
        <time>2013-11-11T07:58:59Z</time>
      </trkpt>
      <trkpt lat="44.61949" lon="0.88308">
        <ele>194.32</ele>
        <time>2013-11-11T07:59:06Z</time>
      </trkpt>
      <trkpt lat="44.61965" lon="0.88301">
        <ele>193.36</ele>
        <time>2013-11-11T07:59:09Z</time>
      </trkpt>
      <trkpt lat="44.61978" lon="0.88297">
        <ele>192.88</ele>
        <time>2013-11-11T07:59:11Z</time>
      </trkpt>
      <trkpt lat="44.62073" lon="0.88264">
        <ele>190.48</ele>
        <time>2013-11-11T07:59:24Z</time>
      </trkpt>
      <trkpt lat="44.62101" lon="0.88244">
        <ele>190</ele>
        <time>2013-11-11T07:59:30Z</time>
      </trkpt>
      <trkpt lat="44.62116" lon="0.88264">
        <ele>188.56</ele>
        <time>2013-11-11T07:59:40Z</time>
      </trkpt>
      <trkpt lat="44.6212" lon="0.88285">
        <ele>188.56</ele>
        <time>2013-11-11T07:59:47Z</time>
      </trkpt>
      <trkpt lat="44.62132" lon="0.88296">
        <ele>189.04</ele>
        <time>2013-11-11T07:59:52Z</time>
      </trkpt>
      <trkpt lat="44.62182" lon="0.88309">
        <ele>186.63</ele>
        <time>2013-11-11T08:00:06Z</time>
      </trkpt>
      <trkpt lat="44.62223" lon="0.88312">
        <ele>180.38</ele>
        <time>2013-11-11T08:00:17Z</time>
      </trkpt>
      <trkpt lat="44.6223" lon="0.88325">
        <ele>177.02</ele>
        <time>2013-11-11T08:00:21Z</time>
      </trkpt>
      <trkpt lat="44.62221" lon="0.88378">
        <ele>171.73</ele>
        <time>2013-11-11T08:00:39Z</time>
      </trkpt>
      <trkpt lat="44.62223" lon="0.88379">
        <ele>168.85</ele>
        <time>2013-11-11T08:00:55Z</time>
      </trkpt>
      <trkpt lat="44.62223" lon="0.88379">
        <ele>169.33</ele>
        <time>2013-11-11T08:01:23Z</time>
      </trkpt>
      <trkpt lat="44.62222" lon="0.88379">
        <ele>169.81</ele>
        <time>2013-11-11T08:01:53Z</time>
      </trkpt>
      <trkpt lat="44.62205" lon="0.88388">
        <ele>170.29</ele>
        <time>2013-11-11T08:02:06Z</time>
      </trkpt>
      <trkpt lat="44.6218" lon="0.88415">
        <ele>171.73</ele>
        <time>2013-11-11T08:02:21Z</time>
      </trkpt>
      <trkpt lat="44.62162" lon="0.88465">
        <ele>172.69</ele>
        <time>2013-11-11T08:02:36Z</time>
      </trkpt>
      <trkpt lat="44.62155" lon="0.88478">
        <ele>174.14</ele>
        <time>2013-11-11T08:02:41Z</time>
      </trkpt>
      <trkpt lat="44.62163" lon="0.88489">
        <ele>176.54</ele>
        <time>2013-11-11T08:02:46Z</time>
      </trkpt>
      <trkpt lat="44.62189" lon="0.88505">
        <ele>180.38</ele>
        <time>2013-11-11T08:02:57Z</time>
      </trkpt>
      <trkpt lat="44.62192" lon="0.88509">
        <ele>181.35</ele>
        <time>2013-11-11T08:02:59Z</time>
      </trkpt>
      <trkpt lat="44.62196" lon="0.88524">
        <ele>187.11</ele>
        <time>2013-11-11T08:03:07Z</time>
      </trkpt>
      <trkpt lat="44.62192" lon="0.88568">
        <ele>192.4</ele>
        <time>2013-11-11T08:03:23Z</time>
      </trkpt>
      <trkpt lat="44.62194" lon="0.88583">
        <ele>192.88</ele>
        <time>2013-11-11T08:03:27Z</time>
      </trkpt>
      <trkpt lat="44.62195" lon="0.88608">
        <ele>194.8</ele>
        <time>2013-11-11T08:03:37Z</time>
      </trkpt>
      <trkpt lat="44.62195" lon="0.88613">
        <ele>195.77</ele>
        <time>2013-11-11T08:03:39Z</time>
      </trkpt>
      <trkpt lat="44.62194" lon="0.88622">
        <ele>197.21</ele>
        <time>2013-11-11T08:03:43Z</time>
      </trkpt>
      <trkpt lat="44.62196" lon="0.88654">
        <ele>202.01</ele>
        <time>2013-11-11T08:03:55Z</time>
      </trkpt>
      <trkpt lat="44.62196" lon="0.88666">
        <ele>203.94</ele>
        <time>2013-11-11T08:03:59Z</time>
      </trkpt>
      <trkpt lat="44.622" lon="0.88699">
        <ele>207.3</ele>
        <time>2013-11-11T08:04:13Z</time>
      </trkpt>
      <trkpt lat="44.62201" lon="0.88736">
        <ele>210.67</ele>
        <time>2013-11-11T08:04:28Z</time>
      </trkpt>
      <trkpt lat="44.62195" lon="0.88769">
        <ele>215.47</ele>
        <time>2013-11-11T08:04:41Z</time>
      </trkpt>
      <trkpt lat="44.62178" lon="0.88811">
        <ele>216.43</ele>
        <time>2013-11-11T08:04:52Z</time>
      </trkpt>
      <trkpt lat="44.62163" lon="0.88863">
        <ele>218.84</ele>
        <time>2013-11-11T08:05:04Z</time>
      </trkpt>
      <trkpt lat="44.62159" lon="0.88876">
        <ele>219.8</ele>
        <time>2013-11-11T08:05:09Z</time>
      </trkpt>
      <trkpt lat="44.62151" lon="0.88916">
        <ele>223.64</ele>
        <time>2013-11-11T08:05:22Z</time>
      </trkpt>
      <trkpt lat="44.62146" lon="0.88943">
        <ele>225.09</ele>
        <time>2013-11-11T08:05:33Z</time>
      </trkpt>
      <trkpt lat="44.62132" lon="0.88978">
        <ele>224.61</ele>
        <time>2013-11-11T08:05:46Z</time>
      </trkpt>
      <trkpt lat="44.62126" lon="0.88984">
        <ele>224.61</ele>
        <time>2013-11-11T08:05:50Z</time>
      </trkpt>
      <trkpt lat="44.62123" lon="0.88998">
        <ele>221.72</ele>
        <time>2013-11-11T08:05:55Z</time>
      </trkpt>
      <trkpt lat="44.62113" lon="0.89035">
        <ele>216.43</ele>
        <time>2013-11-11T08:06:09Z</time>
      </trkpt>
      <trkpt lat="44.62111" lon="0.89037">
        <ele>215.95</ele>
        <time>2013-11-11T08:06:10Z</time>
      </trkpt>
      <trkpt lat="44.62086" lon="0.8908">
        <ele>216.91</ele>
        <time>2013-11-11T08:06:26Z</time>
      </trkpt>
      <trkpt lat="44.62078" lon="0.89121">
        <ele>219.32</ele>
        <time>2013-11-11T08:06:38Z</time>
      </trkpt>
      <trkpt lat="44.6207" lon="0.89143">
        <ele>218.84</ele>
        <time>2013-11-11T08:06:42Z</time>
      </trkpt>
      <trkpt lat="44.62059" lon="0.89167">
        <ele>220.76</ele>
        <time>2013-11-11T08:06:49Z</time>
      </trkpt>
      <trkpt lat="44.62052" lon="0.89182">
        <ele>222.68</ele>
        <time>2013-11-11T08:06:55Z</time>
      </trkpt>
      <trkpt lat="44.62046" lon="0.89207">
        <ele>223.16</ele>
        <time>2013-11-11T08:07:04Z</time>
      </trkpt>
      <trkpt lat="44.6202" lon="0.8924">
        <ele>225.09</ele>
        <time>2013-11-11T08:07:21Z</time>
      </trkpt>
      <trkpt lat="44.61998" lon="0.89253">
        <ele>228.93</ele>
        <time>2013-11-11T08:07:35Z</time>
      </trkpt>
      <trkpt lat="44.61997" lon="0.89254">
        <ele>228.93</ele>
        <time>2013-11-11T08:07:36Z</time>
      </trkpt>
      <trkpt lat="44.61981" lon="0.89264">
        <ele>231.81</ele>
        <time>2013-11-11T08:07:46Z</time>
      </trkpt>
      <trkpt lat="44.61968" lon="0.89268">
        <ele>231.81</ele>
        <time>2013-11-11T08:07:53Z</time>
      </trkpt>
      <trkpt lat="44.61959" lon="0.89272">
        <ele>231.81</ele>
        <time>2013-11-11T08:08:05Z</time>
      </trkpt>
      <trkpt lat="44.61948" lon="0.89276">
        <ele>234.7</ele>
        <time>2013-11-11T08:08:38Z</time>
      </trkpt>
      <trkpt lat="44.61952" lon="0.89272">
        <ele>231.81</ele>
        <time>2013-11-11T08:09:15Z</time>
      </trkpt>
      <trkpt lat="44.61951" lon="0.89272">
        <ele>228.93</ele>
        <time>2013-11-11T08:09:45Z</time>
      </trkpt>
      <trkpt lat="44.61953" lon="0.8927">
        <ele>228.45</ele>
        <time>2013-11-11T08:09:50Z</time>
      </trkpt>
      <trkpt lat="44.61959" lon="0.89242">
        <ele>225.09</ele>
        <time>2013-11-11T08:10:01Z</time>
      </trkpt>
      <trkpt lat="44.61973" lon="0.89179">
        <ele>215.47</ele>
        <time>2013-11-11T08:10:14Z</time>
      </trkpt>
      <trkpt lat="44.61983" lon="0.89127">
        <ele>207.3</ele>
        <time>2013-11-11T08:10:23Z</time>
      </trkpt>
      <trkpt lat="44.61993" lon="0.89089">
        <ele>205.86</ele>
        <time>2013-11-11T08:10:31Z</time>
      </trkpt>
      <trkpt lat="44.61992" lon="0.89036">
        <ele>210.19</ele>
        <time>2013-11-11T08:10:43Z</time>
      </trkpt>
      <trkpt lat="44.61979" lon="0.88999">
        <ele>213.55</ele>
        <time>2013-11-11T08:10:50Z</time>
      </trkpt>
      <trkpt lat="44.61967" lon="0.89001">
        <ele>215.95</ele>
        <time>2013-11-11T08:10:55Z</time>
      </trkpt>
      <trkpt lat="44.61956" lon="0.89009">
        <ele>216.43</ele>
        <time>2013-11-11T08:10:58Z</time>
      </trkpt>
      <trkpt lat="44.61929" lon="0.8903">
        <ele>217.88</ele>
        <time>2013-11-11T08:11:07Z</time>
      </trkpt>
      <trkpt lat="44.61885" lon="0.89069">
        <ele>216.91</ele>
        <time>2013-11-11T08:11:18Z</time>
      </trkpt>
      <trkpt lat="44.61878" lon="0.89076">
        <ele>216.43</ele>
        <time>2013-11-11T08:11:20Z</time>
      </trkpt>
      <trkpt lat="44.61869" lon="0.89065">
        <ele>214.03</ele>
        <time>2013-11-11T08:11:26Z</time>
      </trkpt>
      <trkpt lat="44.61846" lon="0.89021">
        <ele>209.22</ele>
        <time>2013-11-11T08:11:37Z</time>
      </trkpt>
      <trkpt lat="44.61832" lon="0.89028">
        <ele>208.26</ele>
        <time>2013-11-11T08:11:44Z</time>
      </trkpt>
      <trkpt lat="44.61827" lon="0.89033">
        <ele>208.26</ele>
        <time>2013-11-11T08:11:46Z</time>
      </trkpt>
      <trkpt lat="44.61814" lon="0.89026">
        <ele>207.78</ele>
        <time>2013-11-11T08:11:52Z</time>
      </trkpt>
      <trkpt lat="44.61771" lon="0.88976">
        <ele>206.82</ele>
        <time>2013-11-11T08:12:08Z</time>
      </trkpt>
      <trkpt lat="44.61751" lon="0.88951">
        <ele>205.86</ele>
        <time>2013-11-11T08:12:14Z</time>
      </trkpt>
      <trkpt lat="44.61716" lon="0.88913">
        <ele>202.01</ele>
        <time>2013-11-11T08:12:25Z</time>
      </trkpt>
      <trkpt lat="44.61691" lon="0.88948">
        <ele>200.09</ele>
        <time>2013-11-11T08:12:36Z</time>
      </trkpt>
      <trkpt lat="44.61682" lon="0.8899">
        <ele>203.46</ele>
        <time>2013-11-11T08:12:46Z</time>
      </trkpt>
      <trkpt lat="44.6168" lon="0.89039">
        <ele>206.34</ele>
        <time>2013-11-11T08:12:56Z</time>
      </trkpt>
      <trkpt lat="44.61674" lon="0.89077">
        <ele>213.55</ele>
        <time>2013-11-11T08:13:10Z</time>
      </trkpt>
      <trkpt lat="44.61653" lon="0.89088">
        <ele>216.91</ele>
        <time>2013-11-11T08:13:21Z</time>
      </trkpt>
      <trkpt lat="44.61617" lon="0.89086">
        <ele>214.51</ele>
        <time>2013-11-11T08:13:31Z</time>
      </trkpt>
      <trkpt lat="44.61614" lon="0.89085">
        <ele>214.03</ele>
        <time>2013-11-11T08:13:32Z</time>
      </trkpt>
      <trkpt lat="44.61598" lon="0.89088">
        <ele>211.63</ele>
        <time>2013-11-11T08:13:37Z</time>
      </trkpt>
      <trkpt lat="44.61586" lon="0.89092">
        <ele>209.7</ele>
        <time>2013-11-11T08:13:40Z</time>
      </trkpt>
      <trkpt lat="44.61565" lon="0.89101">
        <ele>207.3</ele>
        <time>2013-11-11T08:13:44Z</time>
      </trkpt>
      <trkpt lat="44.61556" lon="0.89136">
        <ele>200.09</ele>
        <time>2013-11-11T08:13:52Z</time>
      </trkpt>
      <trkpt lat="44.61566" lon="0.89209">
        <ele>192.88</ele>
        <time>2013-11-11T08:14:05Z</time>
      </trkpt>
      <trkpt lat="44.61577" lon="0.89259">
        <ele>191.44</ele>
        <time>2013-11-11T08:14:15Z</time>
      </trkpt>
      <trkpt lat="44.61605" lon="0.89339">
        <ele>189.04</ele>
        <time>2013-11-11T08:14:31Z</time>
      </trkpt>
      <trkpt lat="44.61618" lon="0.89424">
        <ele>190.96</ele>
        <time>2013-11-11T08:14:46Z</time>
      </trkpt>
      <trkpt lat="44.61622" lon="0.89504">
        <ele>193.84</ele>
        <time>2013-11-11T08:15:00Z</time>
      </trkpt>
      <trkpt lat="44.61609" lon="0.89571">
        <ele>200.09</ele>
        <time>2013-11-11T08:15:13Z</time>
      </trkpt>
      <trkpt lat="44.61604" lon="0.89596">
        <ele>202.49</ele>
        <time>2013-11-11T08:15:17Z</time>
      </trkpt>
      <trkpt lat="44.61603" lon="0.89636">
        <ele>204.9</ele>
        <time>2013-11-11T08:15:23Z</time>
      </trkpt>
      <trkpt lat="44.61605" lon="0.89649">
        <ele>204.42</ele>
        <time>2013-11-11T08:15:25Z</time>
      </trkpt>
      <trkpt lat="44.61609" lon="0.89669">
        <ele>203.46</ele>
        <time>2013-11-11T08:15:28Z</time>
      </trkpt>
      <trkpt lat="44.61615" lon="0.89704">
        <ele>200.57</ele>
        <time>2013-11-11T08:15:34Z</time>
      </trkpt>
      <trkpt lat="44.61621" lon="0.89745">
        <ele>199.61</ele>
        <time>2013-11-11T08:15:41Z</time>
      </trkpt>
      <trkpt lat="44.61633" lon="0.89773">
        <ele>200.09</ele>
        <time>2013-11-11T08:15:46Z</time>
      </trkpt>
      <trkpt lat="44.61653" lon="0.89813">
        <ele>199.61</ele>
        <time>2013-11-11T08:15:54Z</time>
      </trkpt>
      <trkpt lat="44.61662" lon="0.89833">
        <ele>200.09</ele>
        <time>2013-11-11T08:15:58Z</time>
      </trkpt>
      <trkpt lat="44.61667" lon="0.89848">
        <ele>199.61</ele>
        <time>2013-11-11T08:16:01Z</time>
      </trkpt>
      <trkpt lat="44.61673" lon="0.89869">
        <ele>198.65</ele>
        <time>2013-11-11T08:16:05Z</time>
      </trkpt>
      <trkpt lat="44.61706" lon="0.8994">
        <ele>200.09</ele>
        <time>2013-11-11T08:16:19Z</time>
      </trkpt>
      <trkpt lat="44.6173" lon="0.9">
        <ele>201.53</ele>
        <time>2013-11-11T08:16:31Z</time>
      </trkpt>
      <trkpt lat="44.61739" lon="0.90027">
        <ele>203.46</ele>
        <time>2013-11-11T08:16:42Z</time>
      </trkpt>
      <trkpt lat="44.6174" lon="0.90028">
        <ele>203.94</ele>
        <time>2013-11-11T08:16:43Z</time>
      </trkpt>
      <trkpt lat="44.61741" lon="0.9003">
        <ele>204.42</ele>
        <time>2013-11-11T08:16:45Z</time>
      </trkpt>
      <trkpt lat="44.61747" lon="0.90028">
        <ele>204.9</ele>
        <time>2013-11-11T08:16:50Z</time>
      </trkpt>
      <trkpt lat="44.61775" lon="0.90024">
        <ele>206.34</ele>
        <time>2013-11-11T08:17:04Z</time>
      </trkpt>
      <trkpt lat="44.618" lon="0.90019">
        <ele>207.3</ele>
        <time>2013-11-11T08:17:15Z</time>
      </trkpt>
      <trkpt lat="44.61833" lon="0.9001">
        <ele>208.26</ele>
        <time>2013-11-11T08:17:26Z</time>
      </trkpt>
      <trkpt lat="44.6188" lon="0.8999">
        <ele>211.15</ele>
        <time>2013-11-11T08:17:39Z</time>
      </trkpt>
      <trkpt lat="44.61914" lon="0.8998">
        <ele>214.03</ele>
        <time>2013-11-11T08:17:48Z</time>
      </trkpt>
      <trkpt lat="44.61978" lon="0.89956">
        <ele>215.95</ele>
        <time>2013-11-11T08:18:05Z</time>
      </trkpt>
      <trkpt lat="44.62022" lon="0.89937">
        <ele>220.76</ele>
        <time>2013-11-11T08:18:17Z</time>
      </trkpt>
      <trkpt lat="44.62073" lon="0.89918">
        <ele>225.57</ele>
        <time>2013-11-11T08:18:30Z</time>
      </trkpt>
      <trkpt lat="44.62131" lon="0.89899">
        <ele>228.45</ele>
        <time>2013-11-11T08:18:44Z</time>
      </trkpt>
      <trkpt lat="44.62194" lon="0.89894">
        <ele>227.49</ele>
        <time>2013-11-11T08:18:59Z</time>
      </trkpt>
      <trkpt lat="44.62244" lon="0.89894">
        <ele>226.53</ele>
        <time>2013-11-11T08:19:10Z</time>
      </trkpt>
      <trkpt lat="44.62291" lon="0.89894">
        <ele>229.89</ele>
        <time>2013-11-11T08:19:21Z</time>
      </trkpt>
      <trkpt lat="44.62343" lon="0.89894">
        <ele>235.66</ele>
        <time>2013-11-11T08:19:32Z</time>
      </trkpt>
      <trkpt lat="44.6238" lon="0.89892">
        <ele>237.1</ele>
        <time>2013-11-11T08:19:40Z</time>
      </trkpt>
      <trkpt lat="44.6243" lon="0.89899">
        <ele>237.58</ele>
        <time>2013-11-11T08:19:51Z</time>
      </trkpt>
      <trkpt lat="44.62471" lon="0.8991">
        <ele>241.91</ele>
        <time>2013-11-11T08:20:02Z</time>
      </trkpt>
      <trkpt lat="44.62542" lon="0.89932">
        <ele>243.35</ele>
        <time>2013-11-11T08:20:17Z</time>
      </trkpt>
      <trkpt lat="44.62571" lon="0.89944">
        <ele>243.35</ele>
        <time>2013-11-11T08:20:24Z</time>
      </trkpt>
      <trkpt lat="44.62644" lon="0.89972">
        <ele>239.51</ele>
        <time>2013-11-11T08:20:36Z</time>
      </trkpt>
      <trkpt lat="44.62738" lon="0.90016">
        <ele>232.3</ele>
        <time>2013-11-11T08:20:48Z</time>
      </trkpt>
      <trkpt lat="44.62765" lon="0.90033">
        <ele>230.37</ele>
        <time>2013-11-11T08:20:51Z</time>
      </trkpt>
      <trkpt lat="44.62821" lon="0.90093">
        <ele>223.64</ele>
        <time>2013-11-11T08:20:59Z</time>
      </trkpt>
      <trkpt lat="44.62879" lon="0.90196">
        <ele>216.91</ele>
        <time>2013-11-11T08:21:11Z</time>
      </trkpt>
      <trkpt lat="44.6293" lon="0.90278">
        <ele>211.15</ele>
        <time>2013-11-11T08:21:22Z</time>
      </trkpt>
      <trkpt lat="44.62947" lon="0.90293">
        <ele>209.7</ele>
        <time>2013-11-11T08:21:25Z</time>
      </trkpt>
      <trkpt lat="44.6298" lon="0.90306">
        <ele>208.26</ele>
        <time>2013-11-11T08:21:30Z</time>
      </trkpt>
      <trkpt lat="44.63022" lon="0.90305">
        <ele>206.34</ele>
        <time>2013-11-11T08:21:38Z</time>
      </trkpt>
      <trkpt lat="44.63021" lon="0.90319">
        <ele>204.9</ele>
        <time>2013-11-11T08:21:43Z</time>
      </trkpt>
      <trkpt lat="44.63016" lon="0.90326">
        <ele>204.42</ele>
        <time>2013-11-11T08:21:45Z</time>
      </trkpt>
      <trkpt lat="44.63008" lon="0.90339">
        <ele>203.94</ele>
        <time>2013-11-11T08:21:48Z</time>
      </trkpt>
      <trkpt lat="44.62988" lon="0.90392">
        <ele>202.49</ele>
        <time>2013-11-11T08:21:58Z</time>
      </trkpt>
      <trkpt lat="44.62977" lon="0.90452">
        <ele>203.46</ele>
        <time>2013-11-11T08:22:10Z</time>
      </trkpt>
      <trkpt lat="44.62951" lon="0.90499">
        <ele>202.01</ele>
        <time>2013-11-11T08:22:21Z</time>
      </trkpt>
      <trkpt lat="44.62941" lon="0.90508">
        <ele>202.01</ele>
        <time>2013-11-11T08:22:24Z</time>
      </trkpt>
      <trkpt lat="44.62936" lon="0.90521">
        <ele>202.49</ele>
        <time>2013-11-11T08:22:28Z</time>
      </trkpt>
      <trkpt lat="44.6291" lon="0.90529">
        <ele>200.57</ele>
        <time>2013-11-11T08:22:36Z</time>
      </trkpt>
      <trkpt lat="44.62878" lon="0.9056">
        <ele>203.46</ele>
        <time>2013-11-11T08:22:48Z</time>
      </trkpt>
      <trkpt lat="44.62846" lon="0.90598">
        <ele>204.42</ele>
        <time>2013-11-11T08:23:01Z</time>
      </trkpt>
      <trkpt lat="44.62824" lon="0.90617">
        <ele>204.42</ele>
        <time>2013-11-11T08:23:10Z</time>
      </trkpt>
      <trkpt lat="44.62817" lon="0.90653">
        <ele>205.38</ele>
        <time>2013-11-11T08:23:20Z</time>
      </trkpt>
      <trkpt lat="44.62795" lon="0.90689">
        <ele>210.67</ele>
        <time>2013-11-11T08:23:30Z</time>
      </trkpt>
      <trkpt lat="44.62793" lon="0.90695">
        <ele>212.11</ele>
        <time>2013-11-11T08:23:32Z</time>
      </trkpt>
      <trkpt lat="44.62791" lon="0.90711">
        <ele>212.59</ele>
        <time>2013-11-11T08:23:37Z</time>
      </trkpt>
      <trkpt lat="44.6278" lon="0.90736">
        <ele>219.32</ele>
        <time>2013-11-11T08:23:52Z</time>
      </trkpt>
      <trkpt lat="44.62764" lon="0.90764">
        <ele>224.61</ele>
        <time>2013-11-11T08:24:06Z</time>
      </trkpt>
      <trkpt lat="44.62761" lon="0.90768">
        <ele>225.09</ele>
        <time>2013-11-11T08:24:09Z</time>
      </trkpt>
      <trkpt lat="44.62753" lon="0.90783">
        <ele>226.05</ele>
        <time>2013-11-11T08:24:16Z</time>
      </trkpt>
      <trkpt lat="44.62748" lon="0.90797">
        <ele>227.01</ele>
        <time>2013-11-11T08:24:22Z</time>
      </trkpt>
      <trkpt lat="44.6274" lon="0.90809">
        <ele>230.85</ele>
        <time>2013-11-11T08:24:29Z</time>
      </trkpt>
      <trkpt lat="44.62718" lon="0.90839">
        <ele>231.81</ele>
        <time>2013-11-11T08:24:42Z</time>
      </trkpt>
      <trkpt lat="44.627" lon="0.90854">
        <ele>231.33</ele>
        <time>2013-11-11T08:24:52Z</time>
      </trkpt>
      <trkpt lat="44.62683" lon="0.90863">
        <ele>231.81</ele>
        <time>2013-11-11T08:25:01Z</time>
      </trkpt>
      <trkpt lat="44.62661" lon="0.90875">
        <ele>233.26</ele>
        <time>2013-11-11T08:25:09Z</time>
      </trkpt>
      <trkpt lat="44.62635" lon="0.90883">
        <ele>232.3</ele>
        <time>2013-11-11T08:25:15Z</time>
      </trkpt>
      <trkpt lat="44.62606" lon="0.90905">
        <ele>232.3</ele>
        <time>2013-11-11T08:25:26Z</time>
      </trkpt>
      <trkpt lat="44.62593" lon="0.90914">
        <ele>232.3</ele>
        <time>2013-11-11T08:25:31Z</time>
      </trkpt>
      <trkpt lat="44.62562" lon="0.90943">
        <ele>232.78</ele>
        <time>2013-11-11T08:25:44Z</time>
      </trkpt>
      <trkpt lat="44.62554" lon="0.90954">
        <ele>232.78</ele>
        <time>2013-11-11T08:25:48Z</time>
      </trkpt>
      <trkpt lat="44.62559" lon="0.9099">
        <ele>232.78</ele>
        <time>2013-11-11T08:26:00Z</time>
      </trkpt>
      <trkpt lat="44.62554" lon="0.91001">
        <ele>232.78</ele>
        <time>2013-11-11T08:26:04Z</time>
      </trkpt>
      <trkpt lat="44.62521" lon="0.91023">
        <ele>232.78</ele>
        <time>2013-11-11T08:26:17Z</time>
      </trkpt>
      <trkpt lat="44.62508" lon="0.91035">
        <ele>235.18</ele>
        <time>2013-11-11T08:26:40Z</time>
      </trkpt>
      <trkpt lat="44.62497" lon="0.9103">
        <ele>239.99</ele>
        <time>2013-11-11T08:27:19Z</time>
      </trkpt>
      <trkpt lat="44.62499" lon="0.91032">
        <ele>241.91</ele>
        <time>2013-11-11T08:27:40Z</time>
      </trkpt>
      <trkpt lat="44.62499" lon="0.91039">
        <ele>241.43</ele>
        <time>2013-11-11T08:27:56Z</time>
      </trkpt>
      <trkpt lat="44.6249" lon="0.91047">
        <ele>240.47</ele>
        <time>2013-11-11T08:28:01Z</time>
      </trkpt>
      <trkpt lat="44.62487" lon="0.9105">
        <ele>240.47</ele>
        <time>2013-11-11T08:28:03Z</time>
      </trkpt>
      <trkpt lat="44.62482" lon="0.91063">
        <ele>239.51</ele>
        <time>2013-11-11T08:28:10Z</time>
      </trkpt>
      <trkpt lat="44.62479" lon="0.91066">
        <ele>239.02</ele>
        <time>2013-11-11T08:28:12Z</time>
      </trkpt>
      <trkpt lat="44.62472" lon="0.91077">
        <ele>238.54</ele>
        <time>2013-11-11T08:28:17Z</time>
      </trkpt>
      <trkpt lat="44.62468" lon="0.9108">
        <ele>239.02</ele>
        <time>2013-11-11T08:28:19Z</time>
      </trkpt>
      <trkpt lat="44.62462" lon="0.91097">
        <ele>239.02</ele>
        <time>2013-11-11T08:28:26Z</time>
      </trkpt>
      <trkpt lat="44.62464" lon="0.91127">
        <ele>241.43</ele>
        <time>2013-11-11T08:28:35Z</time>
      </trkpt>
      <trkpt lat="44.62459" lon="0.91138">
        <ele>240.95</ele>
        <time>2013-11-11T08:28:37Z</time>
      </trkpt>
      <trkpt lat="44.62455" lon="0.91162">
        <ele>239.51</ele>
        <time>2013-11-11T08:28:46Z</time>
      </trkpt>
      <trkpt lat="44.62456" lon="0.91179">
        <ele>239.02</ele>
        <time>2013-11-11T08:28:52Z</time>
      </trkpt>
      <trkpt lat="44.62445" lon="0.91224">
        <ele>240.47</ele>
        <time>2013-11-11T08:29:07Z</time>
      </trkpt>
      <trkpt lat="44.62422" lon="0.91255">
        <ele>242.39</ele>
        <time>2013-11-11T08:29:19Z</time>
      </trkpt>
      <trkpt lat="44.62409" lon="0.91275">
        <ele>244.31</ele>
        <time>2013-11-11T08:29:30Z</time>
      </trkpt>
      <trkpt lat="44.62407" lon="0.91281">
        <ele>245.27</ele>
        <time>2013-11-11T08:29:47Z</time>
      </trkpt>
      <trkpt lat="44.62409" lon="0.91288">
        <ele>246.23</ele>
        <time>2013-11-11T08:29:51Z</time>
      </trkpt>
      <trkpt lat="44.62416" lon="0.91309">
        <ele>246.72</ele>
        <time>2013-11-11T08:29:59Z</time>
      </trkpt>
      <trkpt lat="44.62443" lon="0.91366">
        <ele>245.27</ele>
        <time>2013-11-11T08:30:15Z</time>
      </trkpt>
      <trkpt lat="44.62467" lon="0.9142">
        <ele>245.27</ele>
        <time>2013-11-11T08:30:29Z</time>
      </trkpt>
      <trkpt lat="44.62484" lon="0.91475">
        <ele>244.79</ele>
        <time>2013-11-11T08:30:40Z</time>
      </trkpt>
      <trkpt lat="44.62504" lon="0.91552">
        <ele>245.75</ele>
        <time>2013-11-11T08:30:55Z</time>
      </trkpt>
      <trkpt lat="44.62531" lon="0.91623">
        <ele>245.27</ele>
        <time>2013-11-11T08:31:10Z</time>
      </trkpt>
      <trkpt lat="44.62562" lon="0.91679">
        <ele>241.91</ele>
        <time>2013-11-11T08:31:21Z</time>
      </trkpt>
      <trkpt lat="44.62584" lon="0.91726">
        <ele>239.02</ele>
        <time>2013-11-11T08:31:30Z</time>
      </trkpt>
      <trkpt lat="44.62591" lon="0.91744">
        <ele>238.06</ele>
        <time>2013-11-11T08:31:33Z</time>
      </trkpt>
      <trkpt lat="44.62608" lon="0.91792">
        <ele>234.7</ele>
        <time>2013-11-11T08:31:41Z</time>
      </trkpt>
      <trkpt lat="44.6262" lon="0.91827">
        <ele>233.26</ele>
        <time>2013-11-11T08:31:47Z</time>
      </trkpt>
      <trkpt lat="44.62634" lon="0.91868">
        <ele>233.26</ele>
        <time>2013-11-11T08:31:54Z</time>
      </trkpt>
      <trkpt lat="44.62671" lon="0.91938">
        <ele>234.22</ele>
        <time>2013-11-11T08:32:07Z</time>
      </trkpt>
      <trkpt lat="44.62699" lon="0.91984">
        <ele>238.54</ele>
        <time>2013-11-11T08:32:17Z</time>
      </trkpt>
      <trkpt lat="44.62727" lon="0.92028">
        <ele>242.39</ele>
        <time>2013-11-11T08:32:27Z</time>
      </trkpt>
      <trkpt lat="44.62741" lon="0.92057">
        <ele>243.35</ele>
        <time>2013-11-11T08:32:32Z</time>
      </trkpt>
      <trkpt lat="44.62767" lon="0.92116">
        <ele>241.91</ele>
        <time>2013-11-11T08:32:42Z</time>
      </trkpt>
      <trkpt lat="44.6278" lon="0.92138">
        <ele>240.95</ele>
        <time>2013-11-11T08:32:46Z</time>
      </trkpt>
      <trkpt lat="44.62831" lon="0.92222">
        <ele>241.43</ele>
        <time>2013-11-11T08:33:01Z</time>
      </trkpt>
      <trkpt lat="44.62845" lon="0.92238">
        <ele>241.91</ele>
        <time>2013-11-11T08:33:05Z</time>
      </trkpt>
      <trkpt lat="44.62892" lon="0.92248">
        <ele>246.23</ele>
        <time>2013-11-11T08:33:17Z</time>
      </trkpt>
      <trkpt lat="44.62927" lon="0.92254">
        <ele>251.52</ele>
        <time>2013-11-11T08:33:29Z</time>
      </trkpt>
      <trkpt lat="44.62957" lon="0.9226">
        <ele>256.81</ele>
        <time>2013-11-11T08:33:40Z</time>
      </trkpt>
      <trkpt lat="44.6299" lon="0.92266">
        <ele>264.98</ele>
        <time>2013-11-11T08:33:53Z</time>
      </trkpt>
      <trkpt lat="44.6302" lon="0.92268">
        <ele>269.31</ele>
        <time>2013-11-11T08:34:03Z</time>
      </trkpt>
      <trkpt lat="44.63054" lon="0.92276">
        <ele>271.71</ele>
        <time>2013-11-11T08:34:13Z</time>
      </trkpt>
      <trkpt lat="44.63089" lon="0.92295">
        <ele>274.59</ele>
        <time>2013-11-11T08:34:26Z</time>
      </trkpt>
      <trkpt lat="44.63114" lon="0.92303">
        <ele>277.48</ele>
        <time>2013-11-11T08:34:35Z</time>
      </trkpt>
      <trkpt lat="44.63146" lon="0.92328">
        <ele>274.59</ele>
        <time>2013-11-11T08:34:47Z</time>
      </trkpt>
      <trkpt lat="44.6318" lon="0.92351">
        <ele>269.79</ele>
        <time>2013-11-11T08:34:59Z</time>
      </trkpt>
      <trkpt lat="44.63207" lon="0.92378">
        <ele>266.42</ele>
        <time>2013-11-11T08:35:11Z</time>
      </trkpt>
      <trkpt lat="44.63237" lon="0.92403">
        <ele>265.94</ele>
        <time>2013-11-11T08:35:24Z</time>
      </trkpt>
      <trkpt lat="44.63283" lon="0.92434">
        <ele>268.35</ele>
        <time>2013-11-11T08:35:37Z</time>
      </trkpt>
      <trkpt lat="44.63301" lon="0.92459">
        <ele>268.35</ele>
        <time>2013-11-11T08:35:43Z</time>
      </trkpt>
      <trkpt lat="44.63339" lon="0.92491">
        <ele>268.83</ele>
        <time>2013-11-11T08:35:54Z</time>
      </trkpt>
      <trkpt lat="44.63348" lon="0.92497">
        <ele>268.35</ele>
        <time>2013-11-11T08:35:56Z</time>
      </trkpt>
      <trkpt lat="44.63366" lon="0.92508">
        <ele>266.42</ele>
        <time>2013-11-11T08:36:00Z</time>
      </trkpt>
      <trkpt lat="44.63433" lon="0.92555">
        <ele>265.94</ele>
        <time>2013-11-11T08:36:14Z</time>
      </trkpt>
      <trkpt lat="44.63506" lon="0.92554">
        <ele>266.42</ele>
        <time>2013-11-11T08:36:28Z</time>
      </trkpt>
      <trkpt lat="44.63544" lon="0.92551">
        <ele>264.5</ele>
        <time>2013-11-11T08:36:35Z</time>
      </trkpt>
      <trkpt lat="44.63637" lon="0.92566">
        <ele>260.17</ele>
        <time>2013-11-11T08:36:50Z</time>
      </trkpt>
      <trkpt lat="44.63672" lon="0.92576">
        <ele>258.73</ele>
        <time>2013-11-11T08:36:58Z</time>
      </trkpt>
      <trkpt lat="44.63678" lon="0.92584">
        <ele>257.29</ele>
        <time>2013-11-11T08:37:02Z</time>
      </trkpt>
      <trkpt lat="44.63688" lon="0.92632">
        <ele>251.04</ele>
        <time>2013-11-11T08:37:15Z</time>
      </trkpt>
      <trkpt lat="44.63693" lon="0.92673">
        <ele>246.23</ele>
        <time>2013-11-11T08:37:26Z</time>
      </trkpt>
      <trkpt lat="44.63692" lon="0.92697">
        <ele>243.35</ele>
        <time>2013-11-11T08:37:37Z</time>
      </trkpt>
      <trkpt lat="44.63693" lon="0.9271">
        <ele>243.83</ele>
        <time>2013-11-11T08:37:46Z</time>
      </trkpt>
      <trkpt lat="44.63694" lon="0.92738">
        <ele>242.87</ele>
        <time>2013-11-11T08:37:54Z</time>
      </trkpt>
      <trkpt lat="44.63695" lon="0.92752">
        <ele>241.43</ele>
        <time>2013-11-11T08:38:00Z</time>
      </trkpt>
      <trkpt lat="44.63693" lon="0.92763">
        <ele>241.43</ele>
        <time>2013-11-11T08:38:05Z</time>
      </trkpt>
      <trkpt lat="44.63696" lon="0.9279">
        <ele>241.91</ele>
        <time>2013-11-11T08:38:12Z</time>
      </trkpt>
      <trkpt lat="44.63696" lon="0.92795">
        <ele>242.39</ele>
        <time>2013-11-11T08:38:14Z</time>
      </trkpt>
      <trkpt lat="44.63689" lon="0.92805">
        <ele>244.31</ele>
        <time>2013-11-11T08:38:19Z</time>
      </trkpt>
      <trkpt lat="44.63686" lon="0.92851">
        <ele>248.64</ele>
        <time>2013-11-11T08:38:31Z</time>
      </trkpt>
      <trkpt lat="44.63689" lon="0.92887">
        <ele>249.12</ele>
        <time>2013-11-11T08:38:39Z</time>
      </trkpt>
      <trkpt lat="44.63692" lon="0.92907">
        <ele>248.64</ele>
        <time>2013-11-11T08:38:44Z</time>
      </trkpt>
      <trkpt lat="44.63693" lon="0.92953">
        <ele>247.68</ele>
        <time>2013-11-11T08:38:55Z</time>
      </trkpt>
      <trkpt lat="44.63693" lon="0.9296">
        <ele>247.68</ele>
        <time>2013-11-11T08:38:57Z</time>
      </trkpt>
      <trkpt lat="44.63695" lon="0.92967">
        <ele>248.16</ele>
        <time>2013-11-11T08:38:59Z</time>
      </trkpt>
      <trkpt lat="44.63694" lon="0.92983">
        <ele>247.68</ele>
        <time>2013-11-11T08:39:03Z</time>
      </trkpt>
      <trkpt lat="44.63696" lon="0.92997">
        <ele>247.68</ele>
        <time>2013-11-11T08:39:06Z</time>
      </trkpt>
      <trkpt lat="44.63687" lon="0.93023">
        <ele>247.2</ele>
        <time>2013-11-11T08:39:12Z</time>
      </trkpt>
      <trkpt lat="44.63669" lon="0.93038">
        <ele>247.68</ele>
        <time>2013-11-11T08:39:16Z</time>
      </trkpt>
      <trkpt lat="44.63644" lon="0.93064">
        <ele>249.12</ele>
        <time>2013-11-11T08:39:23Z</time>
      </trkpt>
      <trkpt lat="44.6365" lon="0.93088">
        <ele>252.48</ele>
        <time>2013-11-11T08:39:29Z</time>
      </trkpt>
      <trkpt lat="44.63689" lon="0.93113">
        <ele>261.62</ele>
        <time>2013-11-11T08:39:38Z</time>
      </trkpt>
      <trkpt lat="44.63718" lon="0.93125">
        <ele>264.98</ele>
        <time>2013-11-11T08:39:47Z</time>
      </trkpt>
      <trkpt lat="44.63745" lon="0.93148">
        <ele>266.9</ele>
        <time>2013-11-11T08:39:57Z</time>
      </trkpt>
      <trkpt lat="44.63761" lon="0.93163">
        <ele>269.79</ele>
        <time>2013-11-11T08:40:03Z</time>
      </trkpt>
      <trkpt lat="44.63784" lon="0.93192">
        <ele>274.59</ele>
        <time>2013-11-11T08:40:13Z</time>
      </trkpt>
      <trkpt lat="44.63793" lon="0.93203">
        <ele>275.56</ele>
        <time>2013-11-11T08:40:18Z</time>
      </trkpt>
      <trkpt lat="44.63813" lon="0.93221">
        <ele>278.44</ele>
        <time>2013-11-11T08:40:30Z</time>
      </trkpt>
      <trkpt lat="44.63815" lon="0.93223">
        <ele>278.92</ele>
        <time>2013-11-11T08:40:31Z</time>
      </trkpt>
      <trkpt lat="44.63815" lon="0.93227">
        <ele>279.4</ele>
        <time>2013-11-11T08:40:33Z</time>
      </trkpt>
      <trkpt lat="44.63811" lon="0.93236">
        <ele>279.88</ele>
        <time>2013-11-11T08:40:37Z</time>
      </trkpt>
      <trkpt lat="44.63816" lon="0.93257">
        <ele>280.36</ele>
        <time>2013-11-11T08:40:45Z</time>
      </trkpt>
      <trkpt lat="44.63818" lon="0.93271">
        <ele>281.32</ele>
        <time>2013-11-11T08:40:49Z</time>
      </trkpt>
      <trkpt lat="44.63821" lon="0.9328">
        <ele>281.8</ele>
        <time>2013-11-11T08:40:51Z</time>
      </trkpt>
      <trkpt lat="44.63829" lon="0.933">
        <ele>281.8</ele>
        <time>2013-11-11T08:40:55Z</time>
      </trkpt>
      <trkpt lat="44.63831" lon="0.93312">
        <ele>281.8</ele>
        <time>2013-11-11T08:40:57Z</time>
      </trkpt>
      <trkpt lat="44.63832" lon="0.93342">
        <ele>281.32</ele>
        <time>2013-11-11T08:41:02Z</time>
      </trkpt>
      <trkpt lat="44.63846" lon="0.93403">
        <ele>280.36</ele>
        <time>2013-11-11T08:41:13Z</time>
      </trkpt>
      <trkpt lat="44.63845" lon="0.93425">
        <ele>278.44</ele>
        <time>2013-11-11T08:41:17Z</time>
      </trkpt>
      <trkpt lat="44.6385" lon="0.93431">
        <ele>273.63</ele>
        <time>2013-11-11T08:41:29Z</time>
      </trkpt>
      <trkpt lat="44.63861" lon="0.93431">
        <ele>277</ele>
        <time>2013-11-11T08:41:48Z</time>
      </trkpt>
      <trkpt lat="44.63859" lon="0.93429">
        <ele>275.56</ele>
        <time>2013-11-11T08:42:11Z</time>
      </trkpt>
      <trkpt lat="44.63859" lon="0.93432">
        <ele>275.07</ele>
        <time>2013-11-11T08:42:17Z</time>
      </trkpt>
      <trkpt lat="44.63877" lon="0.93475">
        <ele>273.15</ele>
        <time>2013-11-11T08:42:29Z</time>
      </trkpt>
      <trkpt lat="44.63889" lon="0.93497">
        <ele>272.19</ele>
        <time>2013-11-11T08:42:34Z</time>
      </trkpt>
      <trkpt lat="44.63901" lon="0.9351">
        <ele>270.75</ele>
        <time>2013-11-11T08:42:42Z</time>
      </trkpt>
      <trkpt lat="44.6393" lon="0.93519">
        <ele>271.71</ele>
        <time>2013-11-11T08:42:52Z</time>
      </trkpt>
      <trkpt lat="44.6394" lon="0.93553">
        <ele>271.23</ele>
        <time>2013-11-11T08:43:00Z</time>
      </trkpt>
      <trkpt lat="44.63964" lon="0.93607">
        <ele>270.27</ele>
        <time>2013-11-11T08:43:11Z</time>
      </trkpt>
      <trkpt lat="44.6397" lon="0.9366">
        <ele>266.9</ele>
        <time>2013-11-11T08:43:24Z</time>
      </trkpt>
      <trkpt lat="44.63971" lon="0.9368">
        <ele>267.38</ele>
        <time>2013-11-11T08:43:29Z</time>
      </trkpt>
      <trkpt lat="44.63964" lon="0.93709">
        <ele>268.83</ele>
        <time>2013-11-11T08:43:38Z</time>
      </trkpt>
      <trkpt lat="44.63963" lon="0.93739">
        <ele>270.27</ele>
        <time>2013-11-11T08:43:47Z</time>
      </trkpt>
      <trkpt lat="44.63968" lon="0.93759">
        <ele>271.71</ele>
        <time>2013-11-11T08:43:51Z</time>
      </trkpt>
      <trkpt lat="44.63964" lon="0.93783">
        <ele>271.23</ele>
        <time>2013-11-11T08:43:55Z</time>
      </trkpt>
      <trkpt lat="44.63958" lon="0.93794">
        <ele>271.71</ele>
        <time>2013-11-11T08:43:57Z</time>
      </trkpt>
      <trkpt lat="44.63948" lon="0.93819">
        <ele>271.71</ele>
        <time>2013-11-11T08:44:04Z</time>
      </trkpt>
      <trkpt lat="44.63964" lon="0.93854">
        <ele>270.75</ele>
        <time>2013-11-11T08:44:17Z</time>
      </trkpt>
      <trkpt lat="44.63966" lon="0.93861">
        <ele>270.27</ele>
        <time>2013-11-11T08:44:19Z</time>
      </trkpt>
      <trkpt lat="44.63979" lon="0.93904">
        <ele>268.83</ele>
        <time>2013-11-11T08:44:30Z</time>
      </trkpt>
      <trkpt lat="44.63979" lon="0.93917">
        <ele>268.83</ele>
        <time>2013-11-11T08:44:36Z</time>
      </trkpt>
      <trkpt lat="44.63964" lon="0.93957">
        <ele>266.42</ele>
        <time>2013-11-11T08:44:47Z</time>
      </trkpt>
      <trkpt lat="44.6396" lon="0.93965">
        <ele>265.94</ele>
        <time>2013-11-11T08:44:50Z</time>
      </trkpt>
      <trkpt lat="44.63959" lon="0.93981">
        <ele>264.98</ele>
        <time>2013-11-11T08:44:54Z</time>
      </trkpt>
      <trkpt lat="44.6397" lon="0.94017">
        <ele>263.54</ele>
        <time>2013-11-11T08:45:02Z</time>
      </trkpt>
      <trkpt lat="44.63973" lon="0.94032">
        <ele>263.54</ele>
        <time>2013-11-11T08:45:12Z</time>
      </trkpt>
      <trkpt lat="44.63974" lon="0.94035">
        <ele>262.1</ele>
        <time>2013-11-11T08:45:45Z</time>
      </trkpt>
      <trkpt lat="44.63972" lon="0.94032">
        <ele>261.62</ele>
        <time>2013-11-11T08:46:11Z</time>
      </trkpt>
      <trkpt lat="44.63974" lon="0.94035">
        <ele>264.02</ele>
        <time>2013-11-11T08:46:30Z</time>
      </trkpt>
      <trkpt lat="44.63974" lon="0.94035">
        <ele>263.54</ele>
        <time>2013-11-11T08:46:58Z</time>
      </trkpt>
      <trkpt lat="44.63972" lon="0.94037">
        <ele>260.17</ele>
        <time>2013-11-11T08:47:24Z</time>
      </trkpt>
      <trkpt lat="44.63971" lon="0.94036">
        <ele>264.02</ele>
        <time>2013-11-11T08:47:52Z</time>
      </trkpt>
      <trkpt lat="44.63976" lon="0.94035">
        <ele>266.42</ele>
        <time>2013-11-11T08:48:15Z</time>
      </trkpt>
      <trkpt lat="44.63978" lon="0.9406">
        <ele>265.94</ele>
        <time>2013-11-11T08:48:24Z</time>
      </trkpt>
      <trkpt lat="44.63979" lon="0.94085">
        <ele>264.98</ele>
        <time>2013-11-11T08:48:29Z</time>
      </trkpt>
      <trkpt lat="44.63991" lon="0.94105">
        <ele>264.5</ele>
        <time>2013-11-11T08:48:34Z</time>
      </trkpt>
      <trkpt lat="44.63998" lon="0.94127">
        <ele>263.54</ele>
        <time>2013-11-11T08:48:38Z</time>
      </trkpt>
      <trkpt lat="44.64001" lon="0.9415">
        <ele>257.29</ele>
        <time>2013-11-11T08:48:47Z</time>
      </trkpt>
      <trkpt lat="44.64005" lon="0.94163">
        <ele>250.56</ele>
        <time>2013-11-11T08:48:52Z</time>
      </trkpt>
      <trkpt lat="44.6401" lon="0.94176">
        <ele>244.31</ele>
        <time>2013-11-11T08:48:58Z</time>
      </trkpt>
      <trkpt lat="44.64003" lon="0.94216">
        <ele>236.14</ele>
        <time>2013-11-11T08:49:08Z</time>
      </trkpt>
      <trkpt lat="44.64002" lon="0.94222">
        <ele>235.18</ele>
        <time>2013-11-11T08:49:10Z</time>
      </trkpt>
      <trkpt lat="44.63992" lon="0.94262">
        <ele>227.97</ele>
        <time>2013-11-11T08:49:21Z</time>
      </trkpt>
      <trkpt lat="44.63998" lon="0.94319">
        <ele>232.3</ele>
        <time>2013-11-11T08:49:33Z</time>
      </trkpt>
      <trkpt lat="44.63986" lon="0.94357">
        <ele>232.78</ele>
        <time>2013-11-11T08:49:42Z</time>
      </trkpt>
      <trkpt lat="44.63978" lon="0.94374">
        <ele>232.78</ele>
        <time>2013-11-11T08:49:46Z</time>
      </trkpt>
      <trkpt lat="44.64001" lon="0.94389">
        <ele>239.02</ele>
        <time>2013-11-11T08:49:56Z</time>
      </trkpt>
      <trkpt lat="44.64037" lon="0.94397">
        <ele>247.68</ele>
        <time>2013-11-11T08:50:07Z</time>
      </trkpt>
      <trkpt lat="44.64051" lon="0.94408">
        <ele>251.52</ele>
        <time>2013-11-11T08:50:12Z</time>
      </trkpt>
      <trkpt lat="44.64052" lon="0.94415">
        <ele>252.48</ele>
        <time>2013-11-11T08:50:24Z</time>
      </trkpt>
      <trkpt lat="44.64051" lon="0.94415">
        <ele>255.37</ele>
        <time>2013-11-11T08:50:44Z</time>
      </trkpt>
      <trkpt lat="44.6405" lon="0.94417">
        <ele>256.81</ele>
        <time>2013-11-11T08:51:02Z</time>
      </trkpt>
      <trkpt lat="44.64048" lon="0.94442">
        <ele>260.65</ele>
        <time>2013-11-11T08:51:17Z</time>
      </trkpt>
      <trkpt lat="44.64054" lon="0.94462">
        <ele>260.65</ele>
        <time>2013-11-11T08:51:21Z</time>
      </trkpt>
      <trkpt lat="44.64064" lon="0.94489">
        <ele>259.69</ele>
        <time>2013-11-11T08:51:26Z</time>
      </trkpt>
      <trkpt lat="44.64066" lon="0.94502">
        <ele>259.21</ele>
        <time>2013-11-11T08:51:28Z</time>
      </trkpt>
      <trkpt lat="44.64071" lon="0.9453">
        <ele>257.77</ele>
        <time>2013-11-11T08:51:32Z</time>
      </trkpt>
      <trkpt lat="44.64073" lon="0.9456">
        <ele>254.41</ele>
        <time>2013-11-11T08:51:37Z</time>
      </trkpt>
      <trkpt lat="44.64088" lon="0.94627">
        <ele>254.41</ele>
        <time>2013-11-11T08:51:47Z</time>
      </trkpt>
      <trkpt lat="44.64093" lon="0.94647">
        <ele>255.37</ele>
        <time>2013-11-11T08:51:50Z</time>
      </trkpt>
      <trkpt lat="44.64101" lon="0.94682">
        <ele>256.33</ele>
        <time>2013-11-11T08:51:55Z</time>
      </trkpt>
      <trkpt lat="44.64106" lon="0.94696">
        <ele>256.81</ele>
        <time>2013-11-11T08:51:57Z</time>
      </trkpt>
      <trkpt lat="44.64113" lon="0.94731">
        <ele>256.33</ele>
        <time>2013-11-11T08:52:06Z</time>
      </trkpt>
      <trkpt lat="44.64114" lon="0.94734">
        <ele>256.33</ele>
        <time>2013-11-11T08:52:08Z</time>
      </trkpt>
      <trkpt lat="44.64124" lon="0.94749">
        <ele>256.33</ele>
        <time>2013-11-11T08:52:16Z</time>
      </trkpt>
      <trkpt lat="44.64134" lon="0.94792">
        <ele>252.96</ele>
        <time>2013-11-11T08:52:27Z</time>
      </trkpt>
      <trkpt lat="44.64139" lon="0.94802">
        <ele>252.48</ele>
        <time>2013-11-11T08:52:29Z</time>
      </trkpt>
      <trkpt lat="44.64152" lon="0.94833">
        <ele>250.56</ele>
        <time>2013-11-11T08:52:37Z</time>
      </trkpt>
      <trkpt lat="44.64157" lon="0.94844">
        <ele>244.79</ele>
        <time>2013-11-11T08:52:50Z</time>
      </trkpt>
      <trkpt lat="44.64157" lon="0.9485">
        <ele>244.31</ele>
        <time>2013-11-11T08:53:10Z</time>
      </trkpt>
      <trkpt lat="44.64153" lon="0.94857">
        <ele>243.83</ele>
        <time>2013-11-11T08:53:14Z</time>
      </trkpt>
      <trkpt lat="44.64139" lon="0.9489">
        <ele>232.78</ele>
        <time>2013-11-11T08:53:24Z</time>
      </trkpt>
      <trkpt lat="44.64137" lon="0.94929">
        <ele>213.07</ele>
        <time>2013-11-11T08:53:34Z</time>
      </trkpt>
      <trkpt lat="44.64137" lon="0.94948">
        <ele>201.53</ele>
        <time>2013-11-11T08:53:42Z</time>
      </trkpt>
      <trkpt lat="44.64137" lon="0.94965">
        <ele>195.77</ele>
        <time>2013-11-11T08:53:55Z</time>
      </trkpt>
      <trkpt lat="44.64136" lon="0.9497">
        <ele>197.21</ele>
        <time>2013-11-11T08:53:58Z</time>
      </trkpt>
      <trkpt lat="44.64139" lon="0.94977">
        <ele>201.53</ele>
        <time>2013-11-11T08:54:02Z</time>
      </trkpt>
      <trkpt lat="44.64141" lon="0.94983">
        <ele>203.46</ele>
        <time>2013-11-11T08:54:04Z</time>
      </trkpt>
      <trkpt lat="44.6416" lon="0.95016">
        <ele>210.67</ele>
        <time>2013-11-11T08:54:15Z</time>
      </trkpt>
      <trkpt lat="44.64176" lon="0.95042">
        <ele>217.4</ele>
        <time>2013-11-11T08:54:23Z</time>
      </trkpt>
      <trkpt lat="44.6418" lon="0.95053">
        <ele>218.84</ele>
        <time>2013-11-11T08:54:26Z</time>
      </trkpt>
      <trkpt lat="44.64187" lon="0.95092">
        <ele>216.91</ele>
        <time>2013-11-11T08:54:35Z</time>
      </trkpt>
      <trkpt lat="44.64188" lon="0.95111">
        <ele>214.03</ele>
        <time>2013-11-11T08:54:38Z</time>
      </trkpt>
      <trkpt lat="44.64196" lon="0.95155">
        <ele>211.63</ele>
        <time>2013-11-11T08:54:44Z</time>
      </trkpt>
      <trkpt lat="44.642" lon="0.9519">
        <ele>211.15</ele>
        <time>2013-11-11T08:54:50Z</time>
      </trkpt>
      <trkpt lat="44.6421" lon="0.95251">
        <ele>222.2</ele>
        <time>2013-11-11T08:55:04Z</time>
      </trkpt>
      <trkpt lat="44.64219" lon="0.95282">
        <ele>224.61</ele>
        <time>2013-11-11T08:55:13Z</time>
      </trkpt>
      <trkpt lat="44.64206" lon="0.95303">
        <ele>222.2</ele>
        <time>2013-11-11T08:55:21Z</time>
      </trkpt>
      <trkpt lat="44.64186" lon="0.95308">
        <ele>221.72</ele>
        <time>2013-11-11T08:55:30Z</time>
      </trkpt>
      <trkpt lat="44.64179" lon="0.95318">
        <ele>224.12</ele>
        <time>2013-11-11T08:55:36Z</time>
      </trkpt>
      <trkpt lat="44.64165" lon="0.95349">
        <ele>218.36</ele>
        <time>2013-11-11T08:55:47Z</time>
      </trkpt>
      <trkpt lat="44.64161" lon="0.95359">
        <ele>216.91</ele>
        <time>2013-11-11T08:55:49Z</time>
      </trkpt>
      <trkpt lat="44.64154" lon="0.95377">
        <ele>212.59</ele>
        <time>2013-11-11T08:55:55Z</time>
      </trkpt>
      <trkpt lat="44.64148" lon="0.95393">
        <ele>207.3</ele>
        <time>2013-11-11T08:56:02Z</time>
      </trkpt>
      <trkpt lat="44.64117" lon="0.95412">
        <ele>208.26</ele>
        <time>2013-11-11T08:56:12Z</time>
      </trkpt>
      <trkpt lat="44.64093" lon="0.9544">
        <ele>222.2</ele>
        <time>2013-11-11T08:56:22Z</time>
      </trkpt>
      <trkpt lat="44.64081" lon="0.95449">
        <ele>227.49</ele>
        <time>2013-11-11T08:56:26Z</time>
      </trkpt>
      <trkpt lat="44.64063" lon="0.95448">
        <ele>233.74</ele>
        <time>2013-11-11T08:56:31Z</time>
      </trkpt>
      <trkpt lat="44.64041" lon="0.95457">
        <ele>237.1</ele>
        <time>2013-11-11T08:56:36Z</time>
      </trkpt>
      <trkpt lat="44.64017" lon="0.95503">
        <ele>243.35</ele>
        <time>2013-11-11T08:56:49Z</time>
      </trkpt>
      <trkpt lat="44.64026" lon="0.95528">
        <ele>243.35</ele>
        <time>2013-11-11T08:56:54Z</time>
      </trkpt>
      <trkpt lat="44.64041" lon="0.95558">
        <ele>245.27</ele>
        <time>2013-11-11T08:57:02Z</time>
      </trkpt>
      <trkpt lat="44.64036" lon="0.95612">
        <ele>244.31</ele>
        <time>2013-11-11T08:57:15Z</time>
      </trkpt>
      <trkpt lat="44.64037" lon="0.95619">
        <ele>243.83</ele>
        <time>2013-11-11T08:57:17Z</time>
      </trkpt>
      <trkpt lat="44.64032" lon="0.95654">
        <ele>242.39</ele>
        <time>2013-11-11T08:57:22Z</time>
      </trkpt>
      <trkpt lat="44.64043" lon="0.95701">
        <ele>237.1</ele>
        <time>2013-11-11T08:57:29Z</time>
      </trkpt>
      <trkpt lat="44.64046" lon="0.9571">
        <ele>233.74</ele>
        <time>2013-11-11T08:57:40Z</time>
      </trkpt>
      <trkpt lat="44.64045" lon="0.95711">
        <ele>233.26</ele>
        <time>2013-11-11T08:58:02Z</time>
      </trkpt>
      <trkpt lat="44.64045" lon="0.95708">
        <ele>236.62</ele>
        <time>2013-11-11T08:58:20Z</time>
      </trkpt>
      <trkpt lat="44.64042" lon="0.95707">
        <ele>238.54</ele>
        <time>2013-11-11T08:58:41Z</time>
      </trkpt>
      <trkpt lat="44.6404" lon="0.95709">
        <ele>239.02</ele>
        <time>2013-11-11T08:59:08Z</time>
      </trkpt>
      <trkpt lat="44.64042" lon="0.95712">
        <ele>239.02</ele>
        <time>2013-11-11T08:59:21Z</time>
      </trkpt>
      <trkpt lat="44.64032" lon="0.95734">
        <ele>232.78</ele>
        <time>2013-11-11T08:59:31Z</time>
      </trkpt>
      <trkpt lat="44.64029" lon="0.95742">
        <ele>229.89</ele>
        <time>2013-11-11T08:59:33Z</time>
      </trkpt>
      <trkpt lat="44.64017" lon="0.95752">
        <ele>224.12</ele>
        <time>2013-11-11T08:59:37Z</time>
      </trkpt>
      <trkpt lat="44.63977" lon="0.9576">
        <ele>213.55</ele>
        <time>2013-11-11T08:59:45Z</time>
      </trkpt>
      <trkpt lat="44.63968" lon="0.95749">
        <ele>212.11</ele>
        <time>2013-11-11T08:59:49Z</time>
      </trkpt>
      <trkpt lat="44.6396" lon="0.95711">
        <ele>215.95</ele>
        <time>2013-11-11T08:59:58Z</time>
      </trkpt>
      <trkpt lat="44.63956" lon="0.957">
        <ele>219.8</ele>
        <time>2013-11-11T09:00:06Z</time>
      </trkpt>
      <trkpt lat="44.6394" lon="0.95687">
        <ele>221.72</ele>
        <time>2013-11-11T09:00:16Z</time>
      </trkpt>
      <trkpt lat="44.63937" lon="0.95684">
        <ele>222.68</ele>
        <time>2013-11-11T09:00:19Z</time>
      </trkpt>
      <trkpt lat="44.63932" lon="0.95676">
        <ele>226.05</ele>
        <time>2013-11-11T09:00:32Z</time>
      </trkpt>
      <trkpt lat="44.63927" lon="0.95643">
        <ele>225.09</ele>
        <time>2013-11-11T09:00:42Z</time>
      </trkpt>
      <trkpt lat="44.6392" lon="0.95603">
        <ele>226.53</ele>
        <time>2013-11-11T09:00:51Z</time>
      </trkpt>
      <trkpt lat="44.6392" lon="0.95577">
        <ele>228.45</ele>
        <time>2013-11-11T09:01:00Z</time>
      </trkpt>
      <trkpt lat="44.6392" lon="0.95574">
        <ele>228.93</ele>
        <time>2013-11-11T09:01:02Z</time>
      </trkpt>
      <trkpt lat="44.63917" lon="0.95565">
        <ele>231.33</ele>
        <time>2013-11-11T09:01:13Z</time>
      </trkpt>
      <trkpt lat="44.6392" lon="0.95559">
        <ele>232.78</ele>
        <time>2013-11-11T09:01:19Z</time>
      </trkpt>
      <trkpt lat="44.63921" lon="0.95551">
        <ele>231.81</ele>
        <time>2013-11-11T09:01:27Z</time>
      </trkpt>
      <trkpt lat="44.63922" lon="0.95548">
        <ele>231.81</ele>
        <time>2013-11-11T09:01:29Z</time>
      </trkpt>
      <trkpt lat="44.63923" lon="0.9554">
        <ele>232.78</ele>
        <time>2013-11-11T09:01:34Z</time>
      </trkpt>
      <trkpt lat="44.6392" lon="0.95524">
        <ele>234.7</ele>
        <time>2013-11-11T09:01:44Z</time>
      </trkpt>
      <trkpt lat="44.63919" lon="0.9552">
        <ele>235.18</ele>
        <time>2013-11-11T09:01:47Z</time>
      </trkpt>
      <trkpt lat="44.63917" lon="0.95514">
        <ele>235.66</ele>
        <time>2013-11-11T09:02:01Z</time>
      </trkpt>
      <trkpt lat="44.63914" lon="0.95486">
        <ele>235.18</ele>
        <time>2013-11-11T09:02:11Z</time>
      </trkpt>
      <trkpt lat="44.63916" lon="0.95476">
        <ele>234.22</ele>
        <time>2013-11-11T09:02:15Z</time>
      </trkpt>
      <trkpt lat="44.63923" lon="0.95439">
        <ele>232.3</ele>
        <time>2013-11-11T09:02:27Z</time>
      </trkpt>
      <trkpt lat="44.6393" lon="0.95412">
        <ele>230.37</ele>
        <time>2013-11-11T09:02:38Z</time>
      </trkpt>
      <trkpt lat="44.63932" lon="0.95406">
        <ele>229.89</ele>
        <time>2013-11-11T09:02:41Z</time>
      </trkpt>
      <trkpt lat="44.63936" lon="0.954">
        <ele>230.37</ele>
        <time>2013-11-11T09:02:49Z</time>
      </trkpt>
      <trkpt lat="44.63937" lon="0.95392">
        <ele>232.78</ele>
        <time>2013-11-11T09:03:03Z</time>
      </trkpt>
      <trkpt lat="44.63943" lon="0.95378">
        <ele>235.66</ele>
        <time>2013-11-11T09:03:17Z</time>
      </trkpt>
      <trkpt lat="44.63943" lon="0.95377">
        <ele>235.66</ele>
        <time>2013-11-11T09:03:18Z</time>
      </trkpt>
      <trkpt lat="44.63948" lon="0.95363">
        <ele>241.43</ele>
        <time>2013-11-11T09:03:28Z</time>
      </trkpt>
      <trkpt lat="44.63948" lon="0.9536">
        <ele>241.91</ele>
        <time>2013-11-11T09:03:30Z</time>
      </trkpt>
      <trkpt lat="44.63954" lon="0.95346">
        <ele>243.83</ele>
        <time>2013-11-11T09:03:46Z</time>
      </trkpt>
      <trkpt lat="44.6395" lon="0.95347">
        <ele>242.87</ele>
        <time>2013-11-11T09:04:14Z</time>
      </trkpt>
      <trkpt lat="44.63956" lon="0.9534">
        <ele>246.23</ele>
        <time>2013-11-11T09:04:30Z</time>
      </trkpt>
      <trkpt lat="44.63957" lon="0.95337">
        <ele>246.72</ele>
        <time>2013-11-11T09:04:32Z</time>
      </trkpt>
      <trkpt lat="44.63957" lon="0.95327">
        <ele>248.16</ele>
        <time>2013-11-11T09:04:38Z</time>
      </trkpt>
      <trkpt lat="44.63955" lon="0.95318">
        <ele>250.56</ele>
        <time>2013-11-11T09:04:44Z</time>
      </trkpt>
      <trkpt lat="44.63955" lon="0.95314">
        <ele>251.04</ele>
        <time>2013-11-11T09:04:46Z</time>
      </trkpt>
      <trkpt lat="44.63949" lon="0.95288">
        <ele>253.93</ele>
        <time>2013-11-11T09:04:58Z</time>
      </trkpt>
      <trkpt lat="44.63945" lon="0.95266">
        <ele>255.85</ele>
        <time>2013-11-11T09:05:09Z</time>
      </trkpt>
      <trkpt lat="44.63947" lon="0.95262">
        <ele>256.33</ele>
        <time>2013-11-11T09:05:14Z</time>
      </trkpt>
      <trkpt lat="44.63949" lon="0.9526">
        <ele>256.33</ele>
        <time>2013-11-11T09:05:16Z</time>
      </trkpt>
      <trkpt lat="44.63952" lon="0.95255">
        <ele>256.33</ele>
        <time>2013-11-11T09:05:19Z</time>
      </trkpt>
      <trkpt lat="44.63959" lon="0.95231">
        <ele>256.33</ele>
        <time>2013-11-11T09:05:29Z</time>
      </trkpt>
      <trkpt lat="44.63961" lon="0.9523">
        <ele>256.33</ele>
        <time>2013-11-11T09:05:30Z</time>
      </trkpt>
      <trkpt lat="44.63964" lon="0.95227">
        <ele>256.33</ele>
        <time>2013-11-11T09:05:32Z</time>
      </trkpt>
      <trkpt lat="44.63971" lon="0.952">
        <ele>256.33</ele>
        <time>2013-11-11T09:05:42Z</time>
      </trkpt>
      <trkpt lat="44.63976" lon="0.95184">
        <ele>256.33</ele>
        <time>2013-11-11T09:05:51Z</time>
      </trkpt>
      <trkpt lat="44.63975" lon="0.95171">
        <ele>256.81</ele>
        <time>2013-11-11T09:06:00Z</time>
      </trkpt>
      <trkpt lat="44.63966" lon="0.95159">
        <ele>256.81</ele>
        <time>2013-11-11T09:06:05Z</time>
      </trkpt>
      <trkpt lat="44.63948" lon="0.95133">
        <ele>256.81</ele>
        <time>2013-11-11T09:06:13Z</time>
      </trkpt>
      <trkpt lat="44.63942" lon="0.95126">
        <ele>256.33</ele>
        <time>2013-11-11T09:06:17Z</time>
      </trkpt>
      <trkpt lat="44.63939" lon="0.95125">
        <ele>256.33</ele>
        <time>2013-11-11T09:06:20Z</time>
      </trkpt>
      <trkpt lat="44.63929" lon="0.95101">
        <ele>256.33</ele>
        <time>2013-11-11T09:06:30Z</time>
      </trkpt>
      <trkpt lat="44.63926" lon="0.95081">
        <ele>256.33</ele>
        <time>2013-11-11T09:06:36Z</time>
      </trkpt>
      <trkpt lat="44.63924" lon="0.95065">
        <ele>256.81</ele>
        <time>2013-11-11T09:06:40Z</time>
      </trkpt>
      <trkpt lat="44.63906" lon="0.9503">
        <ele>259.69</ele>
        <time>2013-11-11T09:06:52Z</time>
      </trkpt>
      <trkpt lat="44.63898" lon="0.95016">
        <ele>264.98</ele>
        <time>2013-11-11T09:07:13Z</time>
      </trkpt>
      <trkpt lat="44.63898" lon="0.95012">
        <ele>264.5</ele>
        <time>2013-11-11T09:07:30Z</time>
      </trkpt>
      <trkpt lat="44.63888" lon="0.95003">
        <ele>265.46</ele>
        <time>2013-11-11T09:07:50Z</time>
      </trkpt>
      <trkpt lat="44.63876" lon="0.94981">
        <ele>271.71</ele>
        <time>2013-11-11T09:08:04Z</time>
      </trkpt>
      <trkpt lat="44.63852" lon="0.94948">
        <ele>272.67</ele>
        <time>2013-11-11T09:08:15Z</time>
      </trkpt>
      <trkpt lat="44.63838" lon="0.94927">
        <ele>271.71</ele>
        <time>2013-11-11T09:08:21Z</time>
      </trkpt>
      <trkpt lat="44.63813" lon="0.94893">
        <ele>274.11</ele>
        <time>2013-11-11T09:08:32Z</time>
      </trkpt>
      <trkpt lat="44.63803" lon="0.94879">
        <ele>273.15</ele>
        <time>2013-11-11T09:08:35Z</time>
      </trkpt>
      <trkpt lat="44.63785" lon="0.94851">
        <ele>271.23</ele>
        <time>2013-11-11T09:08:41Z</time>
      </trkpt>
      <trkpt lat="44.63759" lon="0.94805">
        <ele>266.42</ele>
        <time>2013-11-11T09:08:47Z</time>
      </trkpt>
      <trkpt lat="44.63736" lon="0.94789">
        <ele>264.5</ele>
        <time>2013-11-11T09:08:51Z</time>
      </trkpt>
      <trkpt lat="44.63713" lon="0.94783">
        <ele>263.54</ele>
        <time>2013-11-11T09:08:55Z</time>
      </trkpt>
      <trkpt lat="44.63682" lon="0.94774">
        <ele>260.17</ele>
        <time>2013-11-11T09:09:01Z</time>
      </trkpt>
      <trkpt lat="44.63673" lon="0.94771">
        <ele>257.29</ele>
        <time>2013-11-11T09:09:14Z</time>
      </trkpt>
      <trkpt lat="44.63672" lon="0.94771">
        <ele>255.85</ele>
        <time>2013-11-11T09:09:36Z</time>
      </trkpt>
      <trkpt lat="44.6368" lon="0.94772">
        <ele>256.33</ele>
        <time>2013-11-11T09:10:07Z</time>
      </trkpt>
      <trkpt lat="44.63671" lon="0.94768">
        <ele>258.25</ele>
        <time>2013-11-11T09:10:35Z</time>
      </trkpt>
      <trkpt lat="44.63672" lon="0.94771">
        <ele>256.33</ele>
        <time>2013-11-11T09:11:02Z</time>
      </trkpt>
      <trkpt lat="44.63673" lon="0.94773">
        <ele>258.25</ele>
        <time>2013-11-11T09:11:31Z</time>
      </trkpt>
      <trkpt lat="44.63668" lon="0.94772">
        <ele>259.69</ele>
        <time>2013-11-11T09:12:04Z</time>
      </trkpt>
      <trkpt lat="44.63668" lon="0.9477">
        <ele>258.25</ele>
        <time>2013-11-11T09:12:30Z</time>
      </trkpt>
      <trkpt lat="44.63667" lon="0.94775">
        <ele>256.33</ele>
        <time>2013-11-11T09:13:05Z</time>
      </trkpt>
      <trkpt lat="44.63669" lon="0.94773">
        <ele>253.44</ele>
        <time>2013-11-11T09:13:41Z</time>
      </trkpt>
      <trkpt lat="44.63669" lon="0.94767">
        <ele>253.93</ele>
        <time>2013-11-11T09:13:58Z</time>
      </trkpt>
      <trkpt lat="44.63667" lon="0.94764">
        <ele>254.41</ele>
        <time>2013-11-11T09:14:20Z</time>
      </trkpt>
      <trkpt lat="44.63658" lon="0.94758">
        <ele>258.73</ele>
        <time>2013-11-11T09:14:44Z</time>
      </trkpt>
      <trkpt lat="44.63659" lon="0.94757">
        <ele>260.65</ele>
        <time>2013-11-11T09:15:09Z</time>
      </trkpt>
      <trkpt lat="44.6366" lon="0.94758">
        <ele>258.73</ele>
        <time>2013-11-11T09:15:25Z</time>
      </trkpt>
      <trkpt lat="44.63652" lon="0.94755">
        <ele>255.85</ele>
        <time>2013-11-11T09:15:30Z</time>
      </trkpt>
      <trkpt lat="44.63618" lon="0.94751">
        <ele>253.44</ele>
        <time>2013-11-11T09:15:42Z</time>
      </trkpt>
      <trkpt lat="44.6357" lon="0.94753">
        <ele>255.37</ele>
        <time>2013-11-11T09:15:54Z</time>
      </trkpt>
      <trkpt lat="44.6354" lon="0.94758">
        <ele>257.29</ele>
        <time>2013-11-11T09:16:02Z</time>
      </trkpt>
      <trkpt lat="44.6349" lon="0.94762">
        <ele>256.81</ele>
        <time>2013-11-11T09:16:15Z</time>
      </trkpt>
      <trkpt lat="44.63452" lon="0.94775">
        <ele>249.12</ele>
        <time>2013-11-11T09:16:27Z</time>
      </trkpt>
      <trkpt lat="44.63413" lon="0.94815">
        <ele>245.75</ele>
        <time>2013-11-11T09:16:42Z</time>
      </trkpt>
      <trkpt lat="44.63411" lon="0.94818">
        <ele>245.75</ele>
        <time>2013-11-11T09:16:43Z</time>
      </trkpt>
      <trkpt lat="44.63399" lon="0.94808">
        <ele>244.31</ele>
        <time>2013-11-11T09:16:48Z</time>
      </trkpt>
      <trkpt lat="44.6336" lon="0.94744">
        <ele>241.91</ele>
        <time>2013-11-11T09:16:57Z</time>
      </trkpt>
      <trkpt lat="44.63347" lon="0.94719">
        <ele>241.91</ele>
        <time>2013-11-11T09:17:01Z</time>
      </trkpt>
      <trkpt lat="44.63314" lon="0.94675">
        <ele>247.2</ele>
        <time>2013-11-11T09:17:12Z</time>
      </trkpt>
      <trkpt lat="44.63279" lon="0.94646">
        <ele>251.04</ele>
        <time>2013-11-11T09:17:22Z</time>
      </trkpt>
      <trkpt lat="44.63245" lon="0.946">
        <ele>255.85</ele>
        <time>2013-11-11T09:17:34Z</time>
      </trkpt>
      <trkpt lat="44.63226" lon="0.94578">
        <ele>257.77</ele>
        <time>2013-11-11T09:17:41Z</time>
      </trkpt>
      <trkpt lat="44.63201" lon="0.94582">
        <ele>259.69</ele>
        <time>2013-11-11T09:17:52Z</time>
      </trkpt>
      <trkpt lat="44.63198" lon="0.94575">
        <ele>259.69</ele>
        <time>2013-11-11T09:17:55Z</time>
      </trkpt>
      <trkpt lat="44.63192" lon="0.94523">
        <ele>259.69</ele>
        <time>2013-11-11T09:18:09Z</time>
      </trkpt>
      <trkpt lat="44.63186" lon="0.94481">
        <ele>258.25</ele>
        <time>2013-11-11T09:18:20Z</time>
      </trkpt>
      <trkpt lat="44.63184" lon="0.94458">
        <ele>257.29</ele>
        <time>2013-11-11T09:18:26Z</time>
      </trkpt>
      <trkpt lat="44.63178" lon="0.94446">
        <ele>258.73</ele>
        <time>2013-11-11T09:18:30Z</time>
      </trkpt>
      <trkpt lat="44.63141" lon="0.94463">
        <ele>254.89</ele>
        <time>2013-11-11T09:18:42Z</time>
      </trkpt>
      <trkpt lat="44.63134" lon="0.94471">
        <ele>253.44</ele>
        <time>2013-11-11T09:18:44Z</time>
      </trkpt>
      <trkpt lat="44.63124" lon="0.9448">
        <ele>251.04</ele>
        <time>2013-11-11T09:18:46Z</time>
      </trkpt>
      <trkpt lat="44.63114" lon="0.94486">
        <ele>249.12</ele>
        <time>2013-11-11T09:18:48Z</time>
      </trkpt>
      <trkpt lat="44.63095" lon="0.94481">
        <ele>244.79</ele>
        <time>2013-11-11T09:18:53Z</time>
      </trkpt>
      <trkpt lat="44.63091" lon="0.94463">
        <ele>244.79</ele>
        <time>2013-11-11T09:19:05Z</time>
      </trkpt>
      <trkpt lat="44.63086" lon="0.94458">
        <ele>247.2</ele>
        <time>2013-11-11T09:19:22Z</time>
      </trkpt>
      <trkpt lat="44.63083" lon="0.94457">
        <ele>246.72</ele>
        <time>2013-11-11T09:19:36Z</time>
      </trkpt>
      <trkpt lat="44.63068" lon="0.9445">
        <ele>252</ele>
        <time>2013-11-11T09:19:44Z</time>
      </trkpt>
      <trkpt lat="44.63057" lon="0.94447">
        <ele>253.93</ele>
        <time>2013-11-11T09:19:47Z</time>
      </trkpt>
      <trkpt lat="44.63031" lon="0.94462">
        <ele>254.89</ele>
        <time>2013-11-11T09:19:57Z</time>
      </trkpt>
      <trkpt lat="44.63021" lon="0.94458">
        <ele>256.81</ele>
        <time>2013-11-11T09:20:02Z</time>
      </trkpt>
      <trkpt lat="44.63013" lon="0.94446">
        <ele>257.29</ele>
        <time>2013-11-11T09:20:07Z</time>
      </trkpt>
      <trkpt lat="44.62988" lon="0.94406">
        <ele>258.25</ele>
        <time>2013-11-11T09:20:17Z</time>
      </trkpt>
      <trkpt lat="44.6297" lon="0.94387">
        <ele>259.21</ele>
        <time>2013-11-11T09:20:22Z</time>
      </trkpt>
      <trkpt lat="44.62937" lon="0.94379">
        <ele>261.62</ele>
        <time>2013-11-11T09:20:30Z</time>
      </trkpt>
      <trkpt lat="44.629" lon="0.94398">
        <ele>262.58</ele>
        <time>2013-11-11T09:20:39Z</time>
      </trkpt>
      <trkpt lat="44.62895" lon="0.94403">
        <ele>262.1</ele>
        <time>2013-11-11T09:20:41Z</time>
      </trkpt>
      <trkpt lat="44.62884" lon="0.94404">
        <ele>260.17</ele>
        <time>2013-11-11T09:20:45Z</time>
      </trkpt>
      <trkpt lat="44.62863" lon="0.94414">
        <ele>256.33</ele>
        <time>2013-11-11T09:20:50Z</time>
      </trkpt>
      <trkpt lat="44.62836" lon="0.9442">
        <ele>255.37</ele>
        <time>2013-11-11T09:20:56Z</time>
      </trkpt>
      <trkpt lat="44.62826" lon="0.94419">
        <ele>254.89</ele>
        <time>2013-11-11T09:20:58Z</time>
      </trkpt>
      <trkpt lat="44.6281" lon="0.9442">
        <ele>254.41</ele>
        <time>2013-11-11T09:21:01Z</time>
      </trkpt>
      <trkpt lat="44.6279" lon="0.94414">
        <ele>253.44</ele>
        <time>2013-11-11T09:21:05Z</time>
      </trkpt>
      <trkpt lat="44.62759" lon="0.94409">
        <ele>249.12</ele>
        <time>2013-11-11T09:21:12Z</time>
      </trkpt>
      <trkpt lat="44.62739" lon="0.9442">
        <ele>244.31</ele>
        <time>2013-11-11T09:21:17Z</time>
      </trkpt>
      <trkpt lat="44.62717" lon="0.94461">
        <ele>231.81</ele>
        <time>2013-11-11T09:21:27Z</time>
      </trkpt>
      <trkpt lat="44.62699" lon="0.9449">
        <ele>222.2</ele>
        <time>2013-11-11T09:21:33Z</time>
      </trkpt>
      <trkpt lat="44.62683" lon="0.94506">
        <ele>214.99</ele>
        <time>2013-11-11T09:21:37Z</time>
      </trkpt>
      <trkpt lat="44.62663" lon="0.94526">
        <ele>210.67</ele>
        <time>2013-11-11T09:21:42Z</time>
      </trkpt>
      <trkpt lat="44.62659" lon="0.94536">
        <ele>202.01</ele>
        <time>2013-11-11T09:21:52Z</time>
      </trkpt>
      <trkpt lat="44.62657" lon="0.94538">
        <ele>201.53</ele>
        <time>2013-11-11T09:21:54Z</time>
      </trkpt>
      <trkpt lat="44.62651" lon="0.94564">
        <ele>202.98</ele>
        <time>2013-11-11T09:22:05Z</time>
      </trkpt>
      <trkpt lat="44.6265" lon="0.94567">
        <ele>204.42</ele>
        <time>2013-11-11T09:22:19Z</time>
      </trkpt>
      <trkpt lat="44.62651" lon="0.94571">
        <ele>209.22</ele>
        <time>2013-11-11T09:22:31Z</time>
      </trkpt>
      <trkpt lat="44.62653" lon="0.94582">
        <ele>212.11</ele>
        <time>2013-11-11T09:22:36Z</time>
      </trkpt>
      <trkpt lat="44.62663" lon="0.94614">
        <ele>219.32</ele>
        <time>2013-11-11T09:22:48Z</time>
      </trkpt>
      <trkpt lat="44.62685" lon="0.94617">
        <ele>225.09</ele>
        <time>2013-11-11T09:22:59Z</time>
      </trkpt>
      <trkpt lat="44.62713" lon="0.94623">
        <ele>230.85</ele>
        <time>2013-11-11T09:23:11Z</time>
      </trkpt>
      <trkpt lat="44.6272" lon="0.94631">
        <ele>238.06</ele>
        <time>2013-11-11T09:23:28Z</time>
      </trkpt>
      <trkpt lat="44.62727" lon="0.94634">
        <ele>245.27</ele>
        <time>2013-11-11T09:24:04Z</time>
      </trkpt>
      <trkpt lat="44.62725" lon="0.94636">
        <ele>247.2</ele>
        <time>2013-11-11T09:24:08Z</time>
      </trkpt>
      <trkpt lat="44.62715" lon="0.94629">
        <ele>246.72</ele>
        <time>2013-11-11T09:24:14Z</time>
      </trkpt>
      <trkpt lat="44.62708" lon="0.94626">
        <ele>246.72</ele>
        <time>2013-11-11T09:24:18Z</time>
      </trkpt>
      <trkpt lat="44.62681" lon="0.94627">
        <ele>242.39</ele>
        <time>2013-11-11T09:24:31Z</time>
      </trkpt>
      <trkpt lat="44.62658" lon="0.946">
        <ele>239.99</ele>
        <time>2013-11-11T09:24:41Z</time>
      </trkpt>
      <trkpt lat="44.62653" lon="0.94581">
        <ele>239.51</ele>
        <time>2013-11-11T09:24:45Z</time>
      </trkpt>
      <trkpt lat="44.62628" lon="0.94586">
        <ele>236.14</ele>
        <time>2013-11-11T09:24:54Z</time>
      </trkpt>
      <trkpt lat="44.62605" lon="0.94604">
        <ele>233.26</ele>
        <time>2013-11-11T09:25:01Z</time>
      </trkpt>
      <trkpt lat="44.62567" lon="0.94634">
        <ele>229.41</ele>
        <time>2013-11-11T09:25:13Z</time>
      </trkpt>
      <trkpt lat="44.62542" lon="0.94656">
        <ele>226.05</ele>
        <time>2013-11-11T09:25:25Z</time>
      </trkpt>
      <trkpt lat="44.6254" lon="0.94661">
        <ele>224.61</ele>
        <time>2013-11-11T09:25:27Z</time>
      </trkpt>
      <trkpt lat="44.62551" lon="0.94712">
        <ele>226.53</ele>
        <time>2013-11-11T09:25:39Z</time>
      </trkpt>
      <trkpt lat="44.62555" lon="0.94759">
        <ele>228.93</ele>
        <time>2013-11-11T09:25:49Z</time>
      </trkpt>
      <trkpt lat="44.62551" lon="0.94818">
        <ele>232.78</ele>
        <time>2013-11-11T09:26:02Z</time>
      </trkpt>
      <trkpt lat="44.62546" lon="0.94866">
        <ele>235.18</ele>
        <time>2013-11-11T09:26:14Z</time>
      </trkpt>
      <trkpt lat="44.62541" lon="0.949">
        <ele>236.14</ele>
        <time>2013-11-11T09:26:26Z</time>
      </trkpt>
      <trkpt lat="44.62521" lon="0.94931">
        <ele>233.26</ele>
        <time>2013-11-11T09:26:40Z</time>
      </trkpt>
      <trkpt lat="44.62518" lon="0.94939">
        <ele>231.81</ele>
        <time>2013-11-11T09:26:44Z</time>
      </trkpt>
      <trkpt lat="44.62495" lon="0.94974">
        <ele>225.09</ele>
        <time>2013-11-11T09:26:58Z</time>
      </trkpt>
      <trkpt lat="44.62477" lon="0.94993">
        <ele>227.01</ele>
        <time>2013-11-11T09:27:04Z</time>
      </trkpt>
      <trkpt lat="44.62457" lon="0.95007">
        <ele>226.53</ele>
        <time>2013-11-11T09:27:09Z</time>
      </trkpt>
      <trkpt lat="44.62416" lon="0.95012">
        <ele>224.61</ele>
        <time>2013-11-11T09:27:17Z</time>
      </trkpt>
      <trkpt lat="44.62387" lon="0.95025">
        <ele>223.16</ele>
        <time>2013-11-11T09:27:23Z</time>
      </trkpt>
      <trkpt lat="44.6236" lon="0.95024">
        <ele>222.2</ele>
        <time>2013-11-11T09:27:27Z</time>
      </trkpt>
      <trkpt lat="44.62327" lon="0.95042">
        <ele>218.84</ele>
        <time>2013-11-11T09:27:34Z</time>
      </trkpt>
      <trkpt lat="44.62317" lon="0.95071">
        <ele>215.47</ele>
        <time>2013-11-11T09:27:40Z</time>
      </trkpt>
      <trkpt lat="44.62319" lon="0.95074">
        <ele>215.47</ele>
        <time>2013-11-11T09:27:42Z</time>
      </trkpt>
      <trkpt lat="44.62325" lon="0.9508">
        <ele>215.47</ele>
        <time>2013-11-11T09:27:55Z</time>
      </trkpt>
      <trkpt lat="44.62324" lon="0.9508">
        <ele>216.91</ele>
        <time>2013-11-11T09:28:01Z</time>
      </trkpt>
      <trkpt lat="44.62354" lon="0.95103">
        <ele>218.84</ele>
        <time>2013-11-11T09:28:13Z</time>
      </trkpt>
      <trkpt lat="44.62372" lon="0.9512">
        <ele>217.88</ele>
        <time>2013-11-11T09:28:23Z</time>
      </trkpt>
      <trkpt lat="44.62399" lon="0.95134">
        <ele>217.88</ele>
        <time>2013-11-11T09:28:35Z</time>
      </trkpt>
      <trkpt lat="44.62444" lon="0.95166">
        <ele>218.84</ele>
        <time>2013-11-11T09:28:50Z</time>
      </trkpt>
      <trkpt lat="44.6248" lon="0.95218">
        <ele>218.84</ele>
        <time>2013-11-11T09:29:06Z</time>
      </trkpt>
      <trkpt lat="44.62523" lon="0.95263">
        <ele>217.88</ele>
        <time>2013-11-11T09:29:22Z</time>
      </trkpt>
      <trkpt lat="44.62533" lon="0.95305">
        <ele>219.32</ele>
        <time>2013-11-11T09:29:34Z</time>
      </trkpt>
      <trkpt lat="44.62525" lon="0.95347">
        <ele>223.16</ele>
        <time>2013-11-11T09:29:48Z</time>
      </trkpt>
      <trkpt lat="44.62518" lon="0.95363">
        <ele>226.05</ele>
        <time>2013-11-11T09:30:00Z</time>
      </trkpt>
      <trkpt lat="44.62513" lon="0.95369">
        <ele>228.45</ele>
        <time>2013-11-11T09:30:12Z</time>
      </trkpt>
      <trkpt lat="44.62504" lon="0.9538">
        <ele>229.89</ele>
        <time>2013-11-11T09:30:19Z</time>
      </trkpt>
      <trkpt lat="44.62499" lon="0.9539">
        <ele>231.33</ele>
        <time>2013-11-11T09:30:25Z</time>
      </trkpt>
      <trkpt lat="44.62495" lon="0.95415">
        <ele>233.74</ele>
        <time>2013-11-11T09:30:34Z</time>
      </trkpt>
      <trkpt lat="44.62474" lon="0.95411">
        <ele>236.62</ele>
        <time>2013-11-11T09:30:46Z</time>
      </trkpt>
      <trkpt lat="44.62445" lon="0.95395">
        <ele>237.58</ele>
        <time>2013-11-11T09:30:59Z</time>
      </trkpt>
      <trkpt lat="44.62399" lon="0.95373">
        <ele>238.06</ele>
        <time>2013-11-11T09:31:12Z</time>
      </trkpt>
      <trkpt lat="44.62382" lon="0.95368">
        <ele>237.58</ele>
        <time>2013-11-11T09:31:16Z</time>
      </trkpt>
      <trkpt lat="44.62355" lon="0.95364">
        <ele>238.54</ele>
        <time>2013-11-11T09:31:22Z</time>
      </trkpt>
      <trkpt lat="44.62346" lon="0.95363">
        <ele>239.02</ele>
        <time>2013-11-11T09:31:24Z</time>
      </trkpt>
      <trkpt lat="44.62325" lon="0.95363">
        <ele>239.51</ele>
        <time>2013-11-11T09:31:29Z</time>
      </trkpt>
      <trkpt lat="44.62264" lon="0.95364">
        <ele>241.91</ele>
        <time>2013-11-11T09:31:44Z</time>
      </trkpt>
      <trkpt lat="44.62218" lon="0.9535">
        <ele>246.72</ele>
        <time>2013-11-11T09:31:55Z</time>
      </trkpt>
      <trkpt lat="44.62151" lon="0.95326">
        <ele>251.52</ele>
        <time>2013-11-11T09:32:11Z</time>
      </trkpt>
      <trkpt lat="44.62089" lon="0.95316">
        <ele>252.96</ele>
        <time>2013-11-11T09:32:27Z</time>
      </trkpt>
      <trkpt lat="44.62039" lon="0.95309">
        <ele>252</ele>
        <time>2013-11-11T09:32:37Z</time>
      </trkpt>
      <trkpt lat="44.61965" lon="0.95272">
        <ele>255.85</ele>
        <time>2013-11-11T09:32:54Z</time>
      </trkpt>
      <trkpt lat="44.61956" lon="0.95269">
        <ele>256.33</ele>
        <time>2013-11-11T09:32:56Z</time>
      </trkpt>
      <trkpt lat="44.61896" lon="0.95249">
        <ele>258.25</ele>
        <time>2013-11-11T09:33:10Z</time>
      </trkpt>
      <trkpt lat="44.61874" lon="0.9524">
        <ele>258.25</ele>
        <time>2013-11-11T09:33:15Z</time>
      </trkpt>
      <trkpt lat="44.61816" lon="0.95226">
        <ele>259.21</ele>
        <time>2013-11-11T09:33:30Z</time>
      </trkpt>
      <trkpt lat="44.61776" lon="0.95215">
        <ele>260.65</ele>
        <time>2013-11-11T09:33:42Z</time>
      </trkpt>
      <trkpt lat="44.61768" lon="0.95213">
        <ele>257.29</ele>
        <time>2013-11-11T09:33:53Z</time>
      </trkpt>
      <trkpt lat="44.61768" lon="0.95213">
        <ele>255.85</ele>
        <time>2013-11-11T09:34:11Z</time>
      </trkpt>
      <trkpt lat="44.61766" lon="0.95215">
        <ele>255.85</ele>
        <time>2013-11-11T09:34:33Z</time>
      </trkpt>
      <trkpt lat="44.61768" lon="0.95214">
        <ele>253.93</ele>
        <time>2013-11-11T09:34:56Z</time>
      </trkpt>
      <trkpt lat="44.61769" lon="0.95214">
        <ele>256.33</ele>
        <time>2013-11-11T09:35:15Z</time>
      </trkpt>
      <trkpt lat="44.61769" lon="0.95213">
        <ele>257.29</ele>
        <time>2013-11-11T09:35:34Z</time>
      </trkpt>
      <trkpt lat="44.61769" lon="0.95215">
        <ele>259.21</ele>
        <time>2013-11-11T09:35:43Z</time>
      </trkpt>
      <trkpt lat="44.61735" lon="0.9521">
        <ele>256.33</ele>
        <time>2013-11-11T09:35:55Z</time>
      </trkpt>
      <trkpt lat="44.6171" lon="0.95198">
        <ele>254.41</ele>
        <time>2013-11-11T09:36:01Z</time>
      </trkpt>
      <trkpt lat="44.61689" lon="0.95172">
        <ele>253.44</ele>
        <time>2013-11-11T09:36:08Z</time>
      </trkpt>
      <trkpt lat="44.6168" lon="0.95168">
        <ele>252.96</ele>
        <time>2013-11-11T09:36:10Z</time>
      </trkpt>
      <trkpt lat="44.61668" lon="0.95158">
        <ele>253.44</ele>
        <time>2013-11-11T09:36:14Z</time>
      </trkpt>
      <trkpt lat="44.61621" lon="0.95119">
        <ele>259.21</ele>
        <time>2013-11-11T09:36:29Z</time>
      </trkpt>
      <trkpt lat="44.61605" lon="0.9509">
        <ele>261.14</ele>
        <time>2013-11-11T09:36:38Z</time>
      </trkpt>
      <trkpt lat="44.61575" lon="0.95065">
        <ele>262.1</ele>
        <time>2013-11-11T09:36:49Z</time>
      </trkpt>
      <trkpt lat="44.61557" lon="0.9503">
        <ele>261.62</ele>
        <time>2013-11-11T09:37:00Z</time>
      </trkpt>
      <trkpt lat="44.6154" lon="0.94985">
        <ele>263.06</ele>
        <time>2013-11-11T09:37:10Z</time>
      </trkpt>
      <trkpt lat="44.61533" lon="0.94959">
        <ele>262.1</ele>
        <time>2013-11-11T09:37:14Z</time>
      </trkpt>
      <trkpt lat="44.61525" lon="0.94929">
        <ele>259.69</ele>
        <time>2013-11-11T09:37:18Z</time>
      </trkpt>
      <trkpt lat="44.61514" lon="0.94892">
        <ele>254.41</ele>
        <time>2013-11-11T09:37:25Z</time>
      </trkpt>
      <trkpt lat="44.61514" lon="0.94876">
        <ele>252.96</ele>
        <time>2013-11-11T09:37:30Z</time>
      </trkpt>
      <trkpt lat="44.61522" lon="0.94829">
        <ele>250.08</ele>
        <time>2013-11-11T09:37:41Z</time>
      </trkpt>
      <trkpt lat="44.61515" lon="0.94821">
        <ele>249.6</ele>
        <time>2013-11-11T09:37:45Z</time>
      </trkpt>
      <trkpt lat="44.6147" lon="0.94811">
        <ele>250.08</ele>
        <time>2013-11-11T09:37:55Z</time>
      </trkpt>
      <trkpt lat="44.61446" lon="0.94818">
        <ele>250.56</ele>
        <time>2013-11-11T09:37:59Z</time>
      </trkpt>
      <trkpt lat="44.61411" lon="0.94819">
        <ele>247.2</ele>
        <time>2013-11-11T09:38:08Z</time>
      </trkpt>
      <trkpt lat="44.6138" lon="0.94795">
        <ele>249.6</ele>
        <time>2013-11-11T09:38:22Z</time>
      </trkpt>
      <trkpt lat="44.61345" lon="0.94763">
        <ele>254.89</ele>
        <time>2013-11-11T09:38:35Z</time>
      </trkpt>
      <trkpt lat="44.61298" lon="0.94727">
        <ele>252</ele>
        <time>2013-11-11T09:38:48Z</time>
      </trkpt>
      <trkpt lat="44.61238" lon="0.94676">
        <ele>248.64</ele>
        <time>2013-11-11T09:39:00Z</time>
      </trkpt>
      <trkpt lat="44.61167" lon="0.94614">
        <ele>249.12</ele>
        <time>2013-11-11T09:39:14Z</time>
      </trkpt>
      <trkpt lat="44.611" lon="0.94537">
        <ele>250.08</ele>
        <time>2013-11-11T09:39:29Z</time>
      </trkpt>
      <trkpt lat="44.6104" lon="0.94465">
        <ele>249.12</ele>
        <time>2013-11-11T09:39:42Z</time>
      </trkpt>
      <trkpt lat="44.61027" lon="0.94435">
        <ele>248.16</ele>
        <time>2013-11-11T09:39:46Z</time>
      </trkpt>
      <trkpt lat="44.61019" lon="0.94387">
        <ele>247.2</ele>
        <time>2013-11-11T09:39:52Z</time>
      </trkpt>
      <trkpt lat="44.61013" lon="0.9436">
        <ele>247.68</ele>
        <time>2013-11-11T09:39:56Z</time>
      </trkpt>
      <trkpt lat="44.61006" lon="0.9434">
        <ele>248.16</ele>
        <time>2013-11-11T09:39:59Z</time>
      </trkpt>
      <trkpt lat="44.60965" lon="0.94269">
        <ele>253.93</ele>
        <time>2013-11-11T09:40:13Z</time>
      </trkpt>
      <trkpt lat="44.60958" lon="0.94259">
        <ele>254.89</ele>
        <time>2013-11-11T09:40:15Z</time>
      </trkpt>
      <trkpt lat="44.60941" lon="0.9423">
        <ele>256.81</ele>
        <time>2013-11-11T09:40:20Z</time>
      </trkpt>
      <trkpt lat="44.60926" lon="0.94199">
        <ele>258.25</ele>
        <time>2013-11-11T09:40:25Z</time>
      </trkpt>
      <trkpt lat="44.60922" lon="0.94187">
        <ele>258.73</ele>
        <time>2013-11-11T09:40:27Z</time>
      </trkpt>
      <trkpt lat="44.60898" lon="0.94127">
        <ele>259.21</ele>
        <time>2013-11-11T09:40:38Z</time>
      </trkpt>
      <trkpt lat="44.60888" lon="0.94104">
        <ele>257.77</ele>
        <time>2013-11-11T09:40:42Z</time>
      </trkpt>
      <trkpt lat="44.60858" lon="0.94058">
        <ele>253.44</ele>
        <time>2013-11-11T09:40:54Z</time>
      </trkpt>
      <trkpt lat="44.60816" lon="0.93995">
        <ele>250.08</ele>
        <time>2013-11-11T09:41:08Z</time>
      </trkpt>
      <trkpt lat="44.60773" lon="0.93953">
        <ele>249.12</ele>
        <time>2013-11-11T09:41:17Z</time>
      </trkpt>
      <trkpt lat="44.6075" lon="0.93941">
        <ele>249.12</ele>
        <time>2013-11-11T09:41:21Z</time>
      </trkpt>
      <trkpt lat="44.607" lon="0.93922">
        <ele>249.6</ele>
        <time>2013-11-11T09:41:30Z</time>
      </trkpt>
      <trkpt lat="44.60636" lon="0.93899">
        <ele>250.56</ele>
        <time>2013-11-11T09:41:41Z</time>
      </trkpt>
      <trkpt lat="44.60567" lon="0.93865">
        <ele>250.56</ele>
        <time>2013-11-11T09:41:54Z</time>
      </trkpt>
      <trkpt lat="44.60511" lon="0.93844">
        <ele>251.04</ele>
        <time>2013-11-11T09:42:07Z</time>
      </trkpt>
      <trkpt lat="44.60513" lon="0.93834">
        <ele>251.04</ele>
        <time>2013-11-11T09:42:14Z</time>
      </trkpt>
      <trkpt lat="44.60534" lon="0.93812">
        <ele>250.08</ele>
        <time>2013-11-11T09:42:30Z</time>
      </trkpt>
      <trkpt lat="44.60553" lon="0.93796">
        <ele>252.48</ele>
        <time>2013-11-11T09:42:38Z</time>
      </trkpt>
      <trkpt lat="44.60568" lon="0.93782">
        <ele>253.93</ele>
        <time>2013-11-11T09:42:42Z</time>
      </trkpt>
      <trkpt lat="44.60577" lon="0.93774">
        <ele>254.89</ele>
        <time>2013-11-11T09:42:44Z</time>
      </trkpt>
      <trkpt lat="44.60598" lon="0.93761">
        <ele>255.85</ele>
        <time>2013-11-11T09:42:48Z</time>
      </trkpt>
      <trkpt lat="44.60627" lon="0.93727">
        <ele>253.44</ele>
        <time>2013-11-11T09:42:54Z</time>
      </trkpt>
      <trkpt lat="44.60638" lon="0.93687">
        <ele>249.12</ele>
        <time>2013-11-11T09:42:58Z</time>
      </trkpt>
      <trkpt lat="44.60654" lon="0.93651">
        <ele>246.23</ele>
        <time>2013-11-11T09:43:02Z</time>
      </trkpt>
      <trkpt lat="44.60686" lon="0.93612">
        <ele>242.39</ele>
        <time>2013-11-11T09:43:08Z</time>
      </trkpt>
      <trkpt lat="44.60696" lon="0.93601">
        <ele>241.43</ele>
        <time>2013-11-11T09:43:10Z</time>
      </trkpt>
      <trkpt lat="44.60716" lon="0.93596">
        <ele>239.51</ele>
        <time>2013-11-11T09:43:15Z</time>
      </trkpt>
      <trkpt lat="44.60728" lon="0.93586">
        <ele>240.47</ele>
        <time>2013-11-11T09:43:26Z</time>
      </trkpt>
      <trkpt lat="44.60731" lon="0.93583">
        <ele>240.95</ele>
        <time>2013-11-11T09:43:41Z</time>
      </trkpt>
      <trkpt lat="44.60744" lon="0.93576">
        <ele>241.91</ele>
        <time>2013-11-11T09:43:48Z</time>
      </trkpt>
      <trkpt lat="44.60789" lon="0.93568">
        <ele>240.47</ele>
        <time>2013-11-11T09:43:57Z</time>
      </trkpt>
      <trkpt lat="44.60808" lon="0.93561">
        <ele>240.47</ele>
        <time>2013-11-11T09:44:00Z</time>
      </trkpt>
      <trkpt lat="44.60846" lon="0.93556">
        <ele>240.47</ele>
        <time>2013-11-11T09:44:07Z</time>
      </trkpt>
      <trkpt lat="44.6086" lon="0.93559">
        <ele>240.95</ele>
        <time>2013-11-11T09:44:10Z</time>
      </trkpt>
      <trkpt lat="44.6089" lon="0.93554">
        <ele>242.39</ele>
        <time>2013-11-11T09:44:16Z</time>
      </trkpt>
      <trkpt lat="44.60941" lon="0.93525">
        <ele>239.02</ele>
        <time>2013-11-11T09:44:30Z</time>
      </trkpt>
      <trkpt lat="44.60955" lon="0.93501">
        <ele>238.06</ele>
        <time>2013-11-11T09:44:38Z</time>
      </trkpt>
      <trkpt lat="44.60957" lon="0.93494">
        <ele>237.1</ele>
        <time>2013-11-11T09:44:42Z</time>
      </trkpt>
      <trkpt lat="44.60967" lon="0.93502">
        <ele>234.7</ele>
        <time>2013-11-11T09:44:52Z</time>
      </trkpt>
      <trkpt lat="44.6097" lon="0.93506">
        <ele>234.7</ele>
        <time>2013-11-11T09:44:54Z</time>
      </trkpt>
      <trkpt lat="44.60989" lon="0.93529">
        <ele>234.7</ele>
        <time>2013-11-11T09:45:11Z</time>
      </trkpt>
      <trkpt lat="44.60989" lon="0.93529">
        <ele>233.74</ele>
        <time>2013-11-11T09:45:23Z</time>
      </trkpt>
      <trkpt lat="44.60992" lon="0.9353">
        <ele>232.78</ele>
        <time>2013-11-11T09:45:43Z</time>
      </trkpt>
      <trkpt lat="44.60997" lon="0.93533">
        <ele>232.78</ele>
        <time>2013-11-11T09:45:48Z</time>
      </trkpt>
      <trkpt lat="44.61" lon="0.93533">
        <ele>233.26</ele>
        <time>2013-11-11T09:45:50Z</time>
      </trkpt>
      <trkpt lat="44.61018" lon="0.93507">
        <ele>236.62</ele>
        <time>2013-11-11T09:46:03Z</time>
      </trkpt>
      <trkpt lat="44.61034" lon="0.9347">
        <ele>239.02</ele>
        <time>2013-11-11T09:46:17Z</time>
      </trkpt>
      <trkpt lat="44.61049" lon="0.93437">
        <ele>241.43</ele>
        <time>2013-11-11T09:46:30Z</time>
      </trkpt>
      <trkpt lat="44.61056" lon="0.93424">
        <ele>241.43</ele>
        <time>2013-11-11T09:46:33Z</time>
      </trkpt>
      <trkpt lat="44.61062" lon="0.93409">
        <ele>241.43</ele>
        <time>2013-11-11T09:46:36Z</time>
      </trkpt>
      <trkpt lat="44.61067" lon="0.93391">
        <ele>240.95</ele>
        <time>2013-11-11T09:46:39Z</time>
      </trkpt>
      <trkpt lat="44.61086" lon="0.93324">
        <ele>237.58</ele>
        <time>2013-11-11T09:46:49Z</time>
      </trkpt>
      <trkpt lat="44.61082" lon="0.933">
        <ele>236.14</ele>
        <time>2013-11-11T09:46:53Z</time>
      </trkpt>
      <trkpt lat="44.61073" lon="0.93291">
        <ele>235.18</ele>
        <time>2013-11-11T09:46:55Z</time>
      </trkpt>
      <trkpt lat="44.61042" lon="0.93269">
        <ele>230.85</ele>
        <time>2013-11-11T09:47:01Z</time>
      </trkpt>
      <trkpt lat="44.61038" lon="0.93225">
        <ele>226.53</ele>
        <time>2013-11-11T09:47:08Z</time>
      </trkpt>
      <trkpt lat="44.6107" lon="0.93113">
        <ele>218.84</ele>
        <time>2013-11-11T09:47:19Z</time>
      </trkpt>
      <trkpt lat="44.6109" lon="0.93083">
        <ele>215.95</ele>
        <time>2013-11-11T09:47:23Z</time>
      </trkpt>
      <trkpt lat="44.61111" lon="0.93063">
        <ele>213.07</ele>
        <time>2013-11-11T09:47:26Z</time>
      </trkpt>
      <trkpt lat="44.61174" lon="0.92985">
        <ele>202.98</ele>
        <time>2013-11-11T09:47:37Z</time>
      </trkpt>
      <trkpt lat="44.61197" lon="0.92958">
        <ele>198.17</ele>
        <time>2013-11-11T09:47:41Z</time>
      </trkpt>
      <trkpt lat="44.61225" lon="0.92904">
        <ele>195.28</ele>
        <time>2013-11-11T09:47:49Z</time>
      </trkpt>
      <trkpt lat="44.61267" lon="0.92886">
        <ele>196.73</ele>
        <time>2013-11-11T09:48:00Z</time>
      </trkpt>
      <trkpt lat="44.61333" lon="0.92879">
        <ele>195.28</ele>
        <time>2013-11-11T09:48:15Z</time>
      </trkpt>
      <trkpt lat="44.61366" lon="0.92879">
        <ele>193.84</ele>
        <time>2013-11-11T09:48:22Z</time>
      </trkpt>
      <trkpt lat="44.61375" lon="0.92868">
        <ele>192.88</ele>
        <time>2013-11-11T09:48:26Z</time>
      </trkpt>
      <trkpt lat="44.61374" lon="0.92854">
        <ele>193.36</ele>
        <time>2013-11-11T09:48:37Z</time>
      </trkpt>
      <trkpt lat="44.61373" lon="0.92853">
        <ele>193.36</ele>
        <time>2013-11-11T09:48:56Z</time>
      </trkpt>
      <trkpt lat="44.61369" lon="0.92833">
        <ele>193.36</ele>
        <time>2013-11-11T09:49:10Z</time>
      </trkpt>
      <trkpt lat="44.61362" lon="0.9281">
        <ele>193.36</ele>
        <time>2013-11-11T09:49:21Z</time>
      </trkpt>
      <trkpt lat="44.61345" lon="0.92758">
        <ele>190.48</ele>
        <time>2013-11-11T09:49:33Z</time>
      </trkpt>
      <trkpt lat="44.61343" lon="0.92753">
        <ele>190</ele>
        <time>2013-11-11T09:49:34Z</time>
      </trkpt>
      <trkpt lat="44.61353" lon="0.92728">
        <ele>189.52</ele>
        <time>2013-11-11T09:49:44Z</time>
      </trkpt>
      <trkpt lat="44.61389" lon="0.92685">
        <ele>190</ele>
        <time>2013-11-11T09:49:58Z</time>
      </trkpt>
      <trkpt lat="44.61417" lon="0.92653">
        <ele>191.44</ele>
        <time>2013-11-11T09:50:10Z</time>
      </trkpt>
      <trkpt lat="44.61441" lon="0.92623">
        <ele>196.25</ele>
        <time>2013-11-11T09:50:24Z</time>
      </trkpt>
      <trkpt lat="44.61442" lon="0.92621">
        <ele>196.73</ele>
        <time>2013-11-11T09:50:25Z</time>
      </trkpt>
      <trkpt lat="44.61439" lon="0.92608">
        <ele>198.17</ele>
        <time>2013-11-11T09:50:31Z</time>
      </trkpt>
      <trkpt lat="44.61393" lon="0.92579">
        <ele>198.17</ele>
        <time>2013-11-11T09:50:46Z</time>
      </trkpt>
      <trkpt lat="44.61344" lon="0.92542">
        <ele>197.69</ele>
        <time>2013-11-11T09:51:00Z</time>
      </trkpt>
      <trkpt lat="44.613" lon="0.92473">
        <ele>195.28</ele>
        <time>2013-11-11T09:51:13Z</time>
      </trkpt>
      <trkpt lat="44.61249" lon="0.92405">
        <ele>190.96</ele>
        <time>2013-11-11T09:51:27Z</time>
      </trkpt>
      <trkpt lat="44.61236" lon="0.92377">
        <ele>189.52</ele>
        <time>2013-11-11T09:51:33Z</time>
      </trkpt>
      <trkpt lat="44.61227" lon="0.9238">
        <ele>189.04</ele>
        <time>2013-11-11T09:51:37Z</time>
      </trkpt>
      <trkpt lat="44.61186" lon="0.92411">
        <ele>187.11</ele>
        <time>2013-11-11T09:51:50Z</time>
      </trkpt>
      <trkpt lat="44.61172" lon="0.92415">
        <ele>188.08</ele>
        <time>2013-11-11T09:51:55Z</time>
      </trkpt>
      <trkpt lat="44.6114" lon="0.92392">
        <ele>189.52</ele>
        <time>2013-11-11T09:52:09Z</time>
      </trkpt>
      <trkpt lat="44.61104" lon="0.92374">
        <ele>191.92</ele>
        <time>2013-11-11T09:52:23Z</time>
      </trkpt>
      <trkpt lat="44.61078" lon="0.92375">
        <ele>193.36</ele>
        <time>2013-11-11T09:52:34Z</time>
      </trkpt>
      <trkpt lat="44.61053" lon="0.92384">
        <ele>196.73</ele>
        <time>2013-11-11T09:52:47Z</time>
      </trkpt>
      <trkpt lat="44.61029" lon="0.92406">
        <ele>197.69</ele>
        <time>2013-11-11T09:52:59Z</time>
      </trkpt>
      <trkpt lat="44.6102" lon="0.92415">
        <ele>197.69</ele>
        <time>2013-11-11T09:53:05Z</time>
      </trkpt>
      <trkpt lat="44.60999" lon="0.92434">
        <ele>197.21</ele>
        <time>2013-11-11T09:53:19Z</time>
      </trkpt>
      <trkpt lat="44.60978" lon="0.92456">
        <ele>198.65</ele>
        <time>2013-11-11T09:53:32Z</time>
      </trkpt>
      <trkpt lat="44.60955" lon="0.9248">
        <ele>202.01</ele>
        <time>2013-11-11T09:53:47Z</time>
      </trkpt>
      <trkpt lat="44.60933" lon="0.92498">
        <ele>204.9</ele>
        <time>2013-11-11T09:54:00Z</time>
      </trkpt>
      <trkpt lat="44.60929" lon="0.92503">
        <ele>206.82</ele>
        <time>2013-11-11T09:54:03Z</time>
      </trkpt>
      <trkpt lat="44.60918" lon="0.92509">
        <ele>210.19</ele>
        <time>2013-11-11T09:54:09Z</time>
      </trkpt>
      <trkpt lat="44.60894" lon="0.9253">
        <ele>213.55</ele>
        <time>2013-11-11T09:54:21Z</time>
      </trkpt>
      <trkpt lat="44.60875" lon="0.92552">
        <ele>219.32</ele>
        <time>2013-11-11T09:54:34Z</time>
      </trkpt>
      <trkpt lat="44.60849" lon="0.92578">
        <ele>222.68</ele>
        <time>2013-11-11T09:54:49Z</time>
      </trkpt>
      <trkpt lat="44.60821" lon="0.92603">
        <ele>225.09</ele>
        <time>2013-11-11T09:55:05Z</time>
      </trkpt>
      <trkpt lat="44.60795" lon="0.92634">
        <ele>224.12</ele>
        <time>2013-11-11T09:55:24Z</time>
      </trkpt>
      <trkpt lat="44.60772" lon="0.92664">
        <ele>221.24</ele>
        <time>2013-11-11T09:55:40Z</time>
      </trkpt>
      <trkpt lat="44.60749" lon="0.92695">
        <ele>215.47</ele>
        <time>2013-11-11T09:55:55Z</time>
      </trkpt>
      <trkpt lat="44.60735" lon="0.92698">
        <ele>215.47</ele>
        <time>2013-11-11T09:56:07Z</time>
      </trkpt>
      <trkpt lat="44.60733" lon="0.92702">
        <ele>223.16</ele>
        <time>2013-11-11T09:56:28Z</time>
      </trkpt>
      <trkpt lat="44.60734" lon="0.92703">
        <ele>225.57</ele>
        <time>2013-11-11T09:56:51Z</time>
      </trkpt>
      <trkpt lat="44.60733" lon="0.92708">
        <ele>231.33</ele>
        <time>2013-11-11T09:57:17Z</time>
      </trkpt>
      <trkpt lat="44.60733" lon="0.92708">
        <ele>235.66</ele>
        <time>2013-11-11T09:57:43Z</time>
      </trkpt>
      <trkpt lat="44.60734" lon="0.92708">
        <ele>237.1</ele>
        <time>2013-11-11T09:58:00Z</time>
      </trkpt>
      <trkpt lat="44.60724" lon="0.92702">
        <ele>236.62</ele>
        <time>2013-11-11T09:58:21Z</time>
      </trkpt>
      <trkpt lat="44.60686" lon="0.92689">
        <ele>238.06</ele>
        <time>2013-11-11T09:58:38Z</time>
      </trkpt>
      <trkpt lat="44.60654" lon="0.92673">
        <ele>235.66</ele>
        <time>2013-11-11T09:58:50Z</time>
      </trkpt>
      <trkpt lat="44.60621" lon="0.92659">
        <ele>235.18</ele>
        <time>2013-11-11T09:59:02Z</time>
      </trkpt>
      <trkpt lat="44.60589" lon="0.92654">
        <ele>237.58</ele>
        <time>2013-11-11T09:59:13Z</time>
      </trkpt>
      <trkpt lat="44.60559" lon="0.92632">
        <ele>240.95</ele>
        <time>2013-11-11T09:59:25Z</time>
      </trkpt>
      <trkpt lat="44.6053" lon="0.92642">
        <ele>243.35</ele>
        <time>2013-11-11T09:59:36Z</time>
      </trkpt>
      <trkpt lat="44.60517" lon="0.92651">
        <ele>243.35</ele>
        <time>2013-11-11T09:59:43Z</time>
      </trkpt>
      <trkpt lat="44.60516" lon="0.9265">
        <ele>246.72</ele>
        <time>2013-11-11T09:59:56Z</time>
      </trkpt>
      <trkpt lat="44.60517" lon="0.92647">
        <ele>247.2</ele>
        <time>2013-11-11T10:00:12Z</time>
      </trkpt>
      <trkpt lat="44.60514" lon="0.92648">
        <ele>249.6</ele>
        <time>2013-11-11T10:00:38Z</time>
      </trkpt>
      <trkpt lat="44.6051" lon="0.92645">
        <ele>247.68</ele>
        <time>2013-11-11T10:01:05Z</time>
      </trkpt>
      <trkpt lat="44.60512" lon="0.92643">
        <ele>246.72</ele>
        <time>2013-11-11T10:01:11Z</time>
      </trkpt>
      <trkpt lat="44.60524" lon="0.92601">
        <ele>243.83</ele>
        <time>2013-11-11T10:01:24Z</time>
      </trkpt>
      <trkpt lat="44.60545" lon="0.92507">
        <ele>234.22</ele>
        <time>2013-11-11T10:01:36Z</time>
      </trkpt>
      <trkpt lat="44.60573" lon="0.92366">
        <ele>222.2</ele>
        <time>2013-11-11T10:01:47Z</time>
      </trkpt>
      <trkpt lat="44.60609" lon="0.92195">
        <ele>211.15</ele>
        <time>2013-11-11T10:02:01Z</time>
      </trkpt>
      <trkpt lat="44.60632" lon="0.92084">
        <ele>203.94</ele>
        <time>2013-11-11T10:02:09Z</time>
      </trkpt>
      <trkpt lat="44.60629" lon="0.91992">
        <ele>204.42</ele>
        <time>2013-11-11T10:02:16Z</time>
      </trkpt>
      <trkpt lat="44.60635" lon="0.91941">
        <ele>209.7</ele>
        <time>2013-11-11T10:02:23Z</time>
      </trkpt>
      <trkpt lat="44.60692" lon="0.91875">
        <ele>206.34</ele>
        <time>2013-11-11T10:02:34Z</time>
      </trkpt>
      <trkpt lat="44.60782" lon="0.91818">
        <ele>203.46</ele>
        <time>2013-11-11T10:02:48Z</time>
      </trkpt>
      <trkpt lat="44.60788" lon="0.91814">
        <ele>203.46</ele>
        <time>2013-11-11T10:02:49Z</time>
      </trkpt>
      <trkpt lat="44.60837" lon="0.91761">
        <ele>203.94</ele>
        <time>2013-11-11T10:03:00Z</time>
      </trkpt>
      <trkpt lat="44.60832" lon="0.91719">
        <ele>200.09</ele>
        <time>2013-11-11T10:03:07Z</time>
      </trkpt>
      <trkpt lat="44.60828" lon="0.91682">
        <ele>200.09</ele>
        <time>2013-11-11T10:03:12Z</time>
      </trkpt>
      <trkpt lat="44.60848" lon="0.91632">
        <ele>198.17</ele>
        <time>2013-11-11T10:03:19Z</time>
      </trkpt>
      <trkpt lat="44.6092" lon="0.91558">
        <ele>188.56</ele>
        <time>2013-11-11T10:03:29Z</time>
      </trkpt>
      <trkpt lat="44.60974" lon="0.91507">
        <ele>182.31</ele>
        <time>2013-11-11T10:03:36Z</time>
      </trkpt>
      <trkpt lat="44.60986" lon="0.91456">
        <ele>178.46</ele>
        <time>2013-11-11T10:03:41Z</time>
      </trkpt>
      <trkpt lat="44.6098" lon="0.91338">
        <ele>170.29</ele>
        <time>2013-11-11T10:03:50Z</time>
      </trkpt>
      <trkpt lat="44.61003" lon="0.91261">
        <ele>167.89</ele>
        <time>2013-11-11T10:03:59Z</time>
      </trkpt>
      <trkpt lat="44.61031" lon="0.91192">
        <ele>169.33</ele>
        <time>2013-11-11T10:04:09Z</time>
      </trkpt>
      <trkpt lat="44.61043" lon="0.91168">
        <ele>169.81</ele>
        <time>2013-11-11T10:04:14Z</time>
      </trkpt>
      <trkpt lat="44.61054" lon="0.91174">
        <ele>170.77</ele>
        <time>2013-11-11T10:04:18Z</time>
      </trkpt>
      <trkpt lat="44.61068" lon="0.91203">
        <ele>171.25</ele>
        <time>2013-11-11T10:04:25Z</time>
      </trkpt>
      <trkpt lat="44.61084" lon="0.9119">
        <ele>171.73</ele>
        <time>2013-11-11T10:04:33Z</time>
      </trkpt>
      <trkpt lat="44.61112" lon="0.91143">
        <ele>169.81</ele>
        <time>2013-11-11T10:04:47Z</time>
      </trkpt>
      <trkpt lat="44.61155" lon="0.91123">
        <ele>171.73</ele>
        <time>2013-11-11T10:05:00Z</time>
      </trkpt>
      <trkpt lat="44.61195" lon="0.91121">
        <ele>177.5</ele>
        <time>2013-11-11T10:05:11Z</time>
      </trkpt>
      <trkpt lat="44.61228" lon="0.91114">
        <ele>179.42</ele>
        <time>2013-11-11T10:05:22Z</time>
      </trkpt>
      <trkpt lat="44.61283" lon="0.91114">
        <ele>181.35</ele>
        <time>2013-11-11T10:05:36Z</time>
      </trkpt>
      <trkpt lat="44.61341" lon="0.91118">
        <ele>177.02</ele>
        <time>2013-11-11T10:05:52Z</time>
      </trkpt>
      <trkpt lat="44.61399" lon="0.91107">
        <ele>180.38</ele>
        <time>2013-11-11T10:06:08Z</time>
      </trkpt>
      <trkpt lat="44.61421" lon="0.9108">
        <ele>186.15</ele>
        <time>2013-11-11T10:06:20Z</time>
      </trkpt>
      <trkpt lat="44.6142" lon="0.91044">
        <ele>188.56</ele>
        <time>2013-11-11T10:06:30Z</time>
      </trkpt>
      <trkpt lat="44.61417" lon="0.9098">
        <ele>188.56</ele>
        <time>2013-11-11T10:06:45Z</time>
      </trkpt>
      <trkpt lat="44.61418" lon="0.90898">
        <ele>190.96</ele>
        <time>2013-11-11T10:07:03Z</time>
      </trkpt>
      <trkpt lat="44.61415" lon="0.90838">
        <ele>195.77</ele>
        <time>2013-11-11T10:07:17Z</time>
      </trkpt>
      <trkpt lat="44.61421" lon="0.90791">
        <ele>198.17</ele>
        <time>2013-11-11T10:07:30Z</time>
      </trkpt>
      <trkpt lat="44.61421" lon="0.90731">
        <ele>199.61</ele>
        <time>2013-11-11T10:07:45Z</time>
      </trkpt>
      <trkpt lat="44.61412" lon="0.90677">
        <ele>201.05</ele>
        <time>2013-11-11T10:07:59Z</time>
      </trkpt>
      <trkpt lat="44.61399" lon="0.90629">
        <ele>204.42</ele>
        <time>2013-11-11T10:08:13Z</time>
      </trkpt>
      <trkpt lat="44.61388" lon="0.90595">
        <ele>213.07</ele>
        <time>2013-11-11T10:08:28Z</time>
      </trkpt>
      <trkpt lat="44.61377" lon="0.90556">
        <ele>220.76</ele>
        <time>2013-11-11T10:08:46Z</time>
      </trkpt>
      <trkpt lat="44.61386" lon="0.90512">
        <ele>222.2</ele>
        <time>2013-11-11T10:09:03Z</time>
      </trkpt>
      <trkpt lat="44.61388" lon="0.90474">
        <ele>221.24</ele>
        <time>2013-11-11T10:09:15Z</time>
      </trkpt>
      <trkpt lat="44.61397" lon="0.90403">
        <ele>214.99</ele>
        <time>2013-11-11T10:09:30Z</time>
      </trkpt>
      <trkpt lat="44.61418" lon="0.90376">
        <ele>215.95</ele>
        <time>2013-11-11T10:09:41Z</time>
      </trkpt>
      <trkpt lat="44.61451" lon="0.90348">
        <ele>219.32</ele>
        <time>2013-11-11T10:09:54Z</time>
      </trkpt>
      <trkpt lat="44.61498" lon="0.90332">
        <ele>221.72</ele>
        <time>2013-11-11T10:10:08Z</time>
      </trkpt>
      <trkpt lat="44.61534" lon="0.90329">
        <ele>226.05</ele>
        <time>2013-11-11T10:10:21Z</time>
      </trkpt>
      <trkpt lat="44.6154" lon="0.90327">
        <ele>226.05</ele>
        <time>2013-11-11T10:10:23Z</time>
      </trkpt>
      <trkpt lat="44.61544" lon="0.90312">
        <ele>224.12</ele>
        <time>2013-11-11T10:10:28Z</time>
      </trkpt>
      <trkpt lat="44.61522" lon="0.90251">
        <ele>218.84</ele>
        <time>2013-11-11T10:10:38Z</time>
      </trkpt>
      <trkpt lat="44.61498" lon="0.902">
        <ele>215.95</ele>
        <time>2013-11-11T10:10:45Z</time>
      </trkpt>
      <trkpt lat="44.61482" lon="0.90176">
        <ele>215.95</ele>
        <time>2013-11-11T10:10:49Z</time>
      </trkpt>
      <trkpt lat="44.61468" lon="0.90155">
        <ele>216.43</ele>
        <time>2013-11-11T10:10:53Z</time>
      </trkpt>
      <trkpt lat="44.61453" lon="0.90136">
        <ele>216.43</ele>
        <time>2013-11-11T10:10:57Z</time>
      </trkpt>
      <trkpt lat="44.61424" lon="0.90102">
        <ele>216.43</ele>
        <time>2013-11-11T10:11:04Z</time>
      </trkpt>
      <trkpt lat="44.61416" lon="0.90079">
        <ele>215.47</ele>
        <time>2013-11-11T10:11:12Z</time>
      </trkpt>
      <trkpt lat="44.61415" lon="0.90078">
        <ele>215.95</ele>
        <time>2013-11-11T10:11:27Z</time>
      </trkpt>
      <trkpt lat="44.61414" lon="0.90075">
        <ele>217.4</ele>
        <time>2013-11-11T10:11:45Z</time>
      </trkpt>
      <trkpt lat="44.61408" lon="0.90072">
        <ele>216.43</ele>
        <time>2013-11-11T10:11:50Z</time>
      </trkpt>
      <trkpt lat="44.61385" lon="0.90073">
        <ele>214.03</ele>
        <time>2013-11-11T10:11:57Z</time>
      </trkpt>
      <trkpt lat="44.61342" lon="0.90071">
        <ele>210.67</ele>
        <time>2013-11-11T10:12:07Z</time>
      </trkpt>
      <trkpt lat="44.61257" lon="0.90074">
        <ele>209.22</ele>
        <time>2013-11-11T10:12:23Z</time>
      </trkpt>
      <trkpt lat="44.61174" lon="0.90092">
        <ele>203.94</ele>
        <time>2013-11-11T10:12:35Z</time>
      </trkpt>
      <trkpt lat="44.61069" lon="0.90088">
        <ele>194.8</ele>
        <time>2013-11-11T10:12:47Z</time>
      </trkpt>
      <trkpt lat="44.61039" lon="0.90081">
        <ele>191.92</ele>
        <time>2013-11-11T10:12:51Z</time>
      </trkpt>
      <trkpt lat="44.61034" lon="0.90055">
        <ele>190</ele>
        <time>2013-11-11T10:12:57Z</time>
      </trkpt>
      <trkpt lat="44.61074" lon="0.90006">
        <ele>192.4</ele>
        <time>2013-11-11T10:13:11Z</time>
      </trkpt>
      <trkpt lat="44.61075" lon="0.89962">
        <ele>194.32</ele>
        <time>2013-11-11T10:13:20Z</time>
      </trkpt>
      <trkpt lat="44.61072" lon="0.89908">
        <ele>197.69</ele>
        <time>2013-11-11T10:13:32Z</time>
      </trkpt>
      <trkpt lat="44.6107" lon="0.89877">
        <ele>198.17</ele>
        <time>2013-11-11T10:13:39Z</time>
      </trkpt>
      <trkpt lat="44.6106" lon="0.89779">
        <ele>199.61</ele>
        <time>2013-11-11T10:13:57Z</time>
      </trkpt>
      <trkpt lat="44.61059" lon="0.89769">
        <ele>200.09</ele>
        <time>2013-11-11T10:13:59Z</time>
      </trkpt>
      <trkpt lat="44.61069" lon="0.89742">
        <ele>198.65</ele>
        <time>2013-11-11T10:14:04Z</time>
      </trkpt>
      <trkpt lat="44.61075" lon="0.89735">
        <ele>198.65</ele>
        <time>2013-11-11T10:14:06Z</time>
      </trkpt>
      <trkpt lat="44.61101" lon="0.89676">
        <ele>200.57</ele>
        <time>2013-11-11T10:14:19Z</time>
      </trkpt>
      <trkpt lat="44.61129" lon="0.89602">
        <ele>201.05</ele>
        <time>2013-11-11T10:14:34Z</time>
      </trkpt>
      <trkpt lat="44.61175" lon="0.8957">
        <ele>207.3</ele>
        <time>2013-11-11T10:14:47Z</time>
      </trkpt>
      <trkpt lat="44.61202" lon="0.89529">
        <ele>210.67</ele>
        <time>2013-11-11T10:14:58Z</time>
      </trkpt>
      <trkpt lat="44.61235" lon="0.89492">
        <ele>213.07</ele>
        <time>2013-11-11T10:15:10Z</time>
      </trkpt>
      <trkpt lat="44.6127" lon="0.89452">
        <ele>212.59</ele>
        <time>2013-11-11T10:15:24Z</time>
      </trkpt>
      <trkpt lat="44.61273" lon="0.89448">
        <ele>211.63</ele>
        <time>2013-11-11T10:15:34Z</time>
      </trkpt>
      <trkpt lat="44.61272" lon="0.8945">
        <ele>214.99</ele>
        <time>2013-11-11T10:16:01Z</time>
      </trkpt>
      <trkpt lat="44.61274" lon="0.89448">
        <ele>215.47</ele>
        <time>2013-11-11T10:16:20Z</time>
      </trkpt>
      <trkpt lat="44.61273" lon="0.89448">
        <ele>215.95</ele>
        <time>2013-11-11T10:16:43Z</time>
      </trkpt>
      <trkpt lat="44.61276" lon="0.89444">
        <ele>214.99</ele>
        <time>2013-11-11T10:17:05Z</time>
      </trkpt>
      <trkpt lat="44.61284" lon="0.89435">
        <ele>213.55</ele>
        <time>2013-11-11T10:17:08Z</time>
      </trkpt>
      <trkpt lat="44.6134" lon="0.89378">
        <ele>207.78</ele>
        <time>2013-11-11T10:17:19Z</time>
      </trkpt>
      <trkpt lat="44.61411" lon="0.89284">
        <ele>202.01</ele>
        <time>2013-11-11T10:17:31Z</time>
      </trkpt>
      <trkpt lat="44.6149" lon="0.89205">
        <ele>197.69</ele>
        <time>2013-11-11T10:17:44Z</time>
      </trkpt>
      <trkpt lat="44.61545" lon="0.89163">
        <ele>195.28</ele>
        <time>2013-11-11T10:17:53Z</time>
      </trkpt>
      <trkpt lat="44.61551" lon="0.89128">
        <ele>192.88</ele>
        <time>2013-11-11T10:18:00Z</time>
      </trkpt>
      <trkpt lat="44.61527" lon="0.89033">
        <ele>190</ele>
        <time>2013-11-11T10:18:14Z</time>
      </trkpt>
      <trkpt lat="44.6152" lon="0.89021">
        <ele>189.52</ele>
        <time>2013-11-11T10:18:16Z</time>
      </trkpt>
      <trkpt lat="44.61448" lon="0.88951">
        <ele>188.08</ele>
        <time>2013-11-11T10:18:30Z</time>
      </trkpt>
      <trkpt lat="44.61361" lon="0.88876">
        <ele>185.19</ele>
        <time>2013-11-11T10:18:46Z</time>
      </trkpt>
      <trkpt lat="44.61283" lon="0.88806">
        <ele>182.79</ele>
        <time>2013-11-11T10:19:00Z</time>
      </trkpt>
      <trkpt lat="44.61223" lon="0.88755">
        <ele>185.67</ele>
        <time>2013-11-11T10:19:12Z</time>
      </trkpt>
      <trkpt lat="44.61157" lon="0.88689">
        <ele>185.19</ele>
        <time>2013-11-11T10:19:26Z</time>
      </trkpt>
      <trkpt lat="44.61153" lon="0.88685">
        <ele>185.19</ele>
        <time>2013-11-11T10:19:27Z</time>
      </trkpt>
      <trkpt lat="44.61093" lon="0.88633">
        <ele>185.67</ele>
        <time>2013-11-11T10:19:42Z</time>
      </trkpt>
      <trkpt lat="44.6106" lon="0.88592">
        <ele>186.15</ele>
        <time>2013-11-11T10:19:51Z</time>
      </trkpt>
      <trkpt lat="44.61051" lon="0.88583">
        <ele>187.59</ele>
        <time>2013-11-11T10:19:54Z</time>
      </trkpt>
      <trkpt lat="44.61041" lon="0.88589">
        <ele>188.56</ele>
        <time>2013-11-11T10:19:58Z</time>
      </trkpt>
      <trkpt lat="44.61038" lon="0.88604">
        <ele>188.08</ele>
        <time>2013-11-11T10:20:01Z</time>
      </trkpt>
      <trkpt lat="44.61036" lon="0.88688">
        <ele>182.79</ele>
        <time>2013-11-11T10:20:11Z</time>
      </trkpt>
      <trkpt lat="44.61037" lon="0.88708">
        <ele>181.35</ele>
        <time>2013-11-11T10:20:13Z</time>
      </trkpt>
      <trkpt lat="44.61025" lon="0.88735">
        <ele>178.94</ele>
        <time>2013-11-11T10:20:17Z</time>
      </trkpt>
      <trkpt lat="44.61003" lon="0.88752">
        <ele>177.98</ele>
        <time>2013-11-11T10:20:21Z</time>
      </trkpt>
      <trkpt lat="44.60972" lon="0.88775">
        <ele>180.38</ele>
        <time>2013-11-11T10:20:28Z</time>
      </trkpt>
      <trkpt lat="44.60915" lon="0.88826">
        <ele>176.54</ele>
        <time>2013-11-11T10:20:41Z</time>
      </trkpt>
      <trkpt lat="44.60873" lon="0.88856">
        <ele>174.14</ele>
        <time>2013-11-11T10:20:52Z</time>
      </trkpt>
      <trkpt lat="44.60842" lon="0.88878">
        <ele>175.58</ele>
        <time>2013-11-11T10:20:58Z</time>
      </trkpt>
      <trkpt lat="44.60822" lon="0.88897">
        <ele>176.06</ele>
        <time>2013-11-11T10:21:03Z</time>
      </trkpt>
      <trkpt lat="44.60807" lon="0.88908">
        <ele>176.06</ele>
        <time>2013-11-11T10:21:06Z</time>
      </trkpt>
      <trkpt lat="44.60785" lon="0.88918">
        <ele>177.02</ele>
        <time>2013-11-11T10:21:10Z</time>
      </trkpt>
      <trkpt lat="44.6077" lon="0.88928">
        <ele>176.54</ele>
        <time>2013-11-11T10:21:13Z</time>
      </trkpt>
      <trkpt lat="44.60736" lon="0.88943">
        <ele>176.54</ele>
        <time>2013-11-11T10:21:19Z</time>
      </trkpt>
      <trkpt lat="44.6071" lon="0.8896">
        <ele>175.58</ele>
        <time>2013-11-11T10:21:24Z</time>
      </trkpt>
      <trkpt lat="44.60651" lon="0.88981">
        <ele>176.54</ele>
        <time>2013-11-11T10:21:34Z</time>
      </trkpt>
      <trkpt lat="44.60556" lon="0.89013">
        <ele>174.14</ele>
        <time>2013-11-11T10:21:48Z</time>
      </trkpt>
      <trkpt lat="44.60523" lon="0.89037">
        <ele>174.14</ele>
        <time>2013-11-11T10:21:54Z</time>
      </trkpt>
      <trkpt lat="44.60487" lon="0.8906">
        <ele>173.17</ele>
        <time>2013-11-11T10:22:01Z</time>
      </trkpt>
      <trkpt lat="44.60469" lon="0.89067">
        <ele>173.17</ele>
        <time>2013-11-11T10:22:04Z</time>
      </trkpt>
      <trkpt lat="44.60404" lon="0.89112">
        <ele>169.33</ele>
        <time>2013-11-11T10:22:15Z</time>
      </trkpt>
      <trkpt lat="44.60364" lon="0.89136">
        <ele>168.85</ele>
        <time>2013-11-11T10:22:22Z</time>
      </trkpt>
      <trkpt lat="44.6034" lon="0.89153">
        <ele>166.93</ele>
        <time>2013-11-11T10:22:26Z</time>
      </trkpt>
      <trkpt lat="44.60313" lon="0.89185">
        <ele>165.48</ele>
        <time>2013-11-11T10:22:31Z</time>
      </trkpt>
      <trkpt lat="44.60298" lon="0.89211">
        <ele>165</ele>
        <time>2013-11-11T10:22:35Z</time>
      </trkpt>
      <trkpt lat="44.60269" lon="0.89229">
        <ele>164.52</ele>
        <time>2013-11-11T10:22:40Z</time>
      </trkpt>
      <trkpt lat="44.60225" lon="0.89247">
        <ele>166.45</ele>
        <time>2013-11-11T10:22:47Z</time>
      </trkpt>
      <trkpt lat="44.60214" lon="0.89253">
        <ele>165.96</ele>
        <time>2013-11-11T10:22:49Z</time>
      </trkpt>
      <trkpt lat="44.60187" lon="0.89275">
        <ele>164.04</ele>
        <time>2013-11-11T10:22:54Z</time>
      </trkpt>
      <trkpt lat="44.60175" lon="0.8929">
        <ele>163.08</ele>
        <time>2013-11-11T10:22:57Z</time>
      </trkpt>
      <trkpt lat="44.60134" lon="0.89305">
        <ele>165</ele>
        <time>2013-11-11T10:23:04Z</time>
      </trkpt>
      <trkpt lat="44.60129" lon="0.89318">
        <ele>169.81</ele>
        <time>2013-11-11T10:23:13Z</time>
      </trkpt>
      <trkpt lat="44.60125" lon="0.89377">
        <ele>170.77</ele>
        <time>2013-11-11T10:23:27Z</time>
      </trkpt>
      <trkpt lat="44.60119" lon="0.89389">
        <ele>169.81</ele>
        <time>2013-11-11T10:23:30Z</time>
      </trkpt>
      <trkpt lat="44.60087" lon="0.89458">
        <ele>167.89</ele>
        <time>2013-11-11T10:23:46Z</time>
      </trkpt>
      <trkpt lat="44.6007" lon="0.89495">
        <ele>166.45</ele>
        <time>2013-11-11T10:23:54Z</time>
      </trkpt>
      <trkpt lat="44.60046" lon="0.89483">
        <ele>167.41</ele>
        <time>2013-11-11T10:24:04Z</time>
      </trkpt>
    </trkseg>
  </trk>
</gpx>